<?xml version="1.0" encoding="UTF-8" standalone="no" ?>
<gpx xmlns="http://www.topografix.com/GPX/1/1" xmlns:xsi="http://www.w3.org/2001/XMLSchema-instance" xsi:schemaLocation="http://www.topografix.com/GPX/1/1 http://www.topografix.com/GPX/1/1/gpx.xsd" version="1.1" creator="VisuGPX - https://www.visugpx.com">
  <metadata>
    <name>2023-05-11-46-VERS</name>
    <desc><![CDATA[Randonnée de 13 km pour 350m de dénivelé positif. Un départ tranquille le long de la rivière et des vues sur la vallée jusqu'au Moulin de Nouillac, puis en suivant le ruisseau avant d'attaquer l'unique grosse montée du jour : paysages, hameaux et un petit bout de l'ancien aqueduc pour le plaisir des yeux.]]></desc>
  </metadata>
  <trk>
    <name><![CDATA[VERS PHILLIPE 11 05 2023]]></name>
    <trkseg>
      <trkpt lat="44.48566" lon="1.55527">
        <ele>134.24</ele>
        <time>2023-05-11T12:00:04Z</time>
      </trkpt>
      <trkpt lat="44.48559" lon="1.55518">
        <ele>134.72</ele>
        <time>2023-05-11T12:00:29Z</time>
      </trkpt>
      <trkpt lat="44.48552" lon="1.55504">
        <ele>134.72</ele>
        <time>2023-05-11T12:00:41Z</time>
      </trkpt>
      <trkpt lat="44.4855" lon="1.5549">
        <ele>134.72</ele>
        <time>2023-05-11T12:00:51Z</time>
      </trkpt>
      <trkpt lat="44.48551" lon="1.55476">
        <ele>134.72</ele>
        <time>2023-05-11T12:00:59Z</time>
      </trkpt>
      <trkpt lat="44.48549" lon="1.55462">
        <ele>133.28</ele>
        <time>2023-05-11T12:01:09Z</time>
      </trkpt>
      <trkpt lat="44.48545" lon="1.55447">
        <ele>130.88</ele>
        <time>2023-05-11T12:01:22Z</time>
      </trkpt>
      <trkpt lat="44.48541" lon="1.55433">
        <ele>130.4</ele>
        <time>2023-05-11T12:01:32Z</time>
      </trkpt>
      <trkpt lat="44.48536" lon="1.5542">
        <ele>130.4</ele>
        <time>2023-05-11T12:01:40Z</time>
      </trkpt>
      <trkpt lat="44.48532" lon="1.55405">
        <ele>130.4</ele>
        <time>2023-05-11T12:01:50Z</time>
      </trkpt>
      <trkpt lat="44.48522" lon="1.554">
        <ele>129.92</ele>
        <time>2023-05-11T12:02:01Z</time>
      </trkpt>
      <trkpt lat="44.48513" lon="1.55395">
        <ele>128.95</ele>
        <time>2023-05-11T12:02:10Z</time>
      </trkpt>
      <trkpt lat="44.48506" lon="1.55383">
        <ele>128.47</ele>
        <time>2023-05-11T12:02:20Z</time>
      </trkpt>
      <trkpt lat="44.485" lon="1.5537">
        <ele>127.99</ele>
        <time>2023-05-11T12:02:31Z</time>
      </trkpt>
      <trkpt lat="44.48493" lon="1.55357">
        <ele>127.51</ele>
        <time>2023-05-11T12:02:40Z</time>
      </trkpt>
      <trkpt lat="44.48482" lon="1.55346">
        <ele>127.51</ele>
        <time>2023-05-11T12:02:50Z</time>
      </trkpt>
      <trkpt lat="44.48472" lon="1.5534">
        <ele>127.51</ele>
        <time>2023-05-11T12:02:59Z</time>
      </trkpt>
      <trkpt lat="44.48462" lon="1.55336">
        <ele>127.51</ele>
        <time>2023-05-11T12:03:08Z</time>
      </trkpt>
      <trkpt lat="44.48452" lon="1.5533">
        <ele>127.51</ele>
        <time>2023-05-11T12:03:23Z</time>
      </trkpt>
      <trkpt lat="44.48446" lon="1.55318">
        <ele>127.51</ele>
        <time>2023-05-11T12:03:36Z</time>
      </trkpt>
      <trkpt lat="44.48438" lon="1.55323">
        <ele>127.03</ele>
        <time>2023-05-11T12:03:47Z</time>
      </trkpt>
      <trkpt lat="44.4843" lon="1.55326">
        <ele>127.03</ele>
        <time>2023-05-11T12:03:56Z</time>
      </trkpt>
      <trkpt lat="44.48421" lon="1.5532">
        <ele>127.03</ele>
        <time>2023-05-11T12:04:05Z</time>
      </trkpt>
      <trkpt lat="44.48411" lon="1.55313">
        <ele>127.03</ele>
        <time>2023-05-11T12:04:16Z</time>
      </trkpt>
      <trkpt lat="44.48398" lon="1.55305">
        <ele>126.55</ele>
        <time>2023-05-11T12:04:27Z</time>
      </trkpt>
      <trkpt lat="44.48389" lon="1.55295">
        <ele>126.55</ele>
        <time>2023-05-11T12:04:36Z</time>
      </trkpt>
      <trkpt lat="44.48379" lon="1.55286">
        <ele>126.55</ele>
        <time>2023-05-11T12:04:45Z</time>
      </trkpt>
      <trkpt lat="44.4837" lon="1.55277">
        <ele>126.55</ele>
        <time>2023-05-11T12:04:55Z</time>
      </trkpt>
      <trkpt lat="44.48362" lon="1.55267">
        <ele>126.55</ele>
        <time>2023-05-11T12:05:03Z</time>
      </trkpt>
      <trkpt lat="44.48352" lon="1.55257">
        <ele>126.55</ele>
        <time>2023-05-11T12:05:12Z</time>
      </trkpt>
      <trkpt lat="44.48342" lon="1.55247">
        <ele>126.55</ele>
        <time>2023-05-11T12:05:21Z</time>
      </trkpt>
      <trkpt lat="44.48331" lon="1.55238">
        <ele>126.55</ele>
        <time>2023-05-11T12:05:30Z</time>
      </trkpt>
      <trkpt lat="44.48323" lon="1.5523">
        <ele>126.55</ele>
        <time>2023-05-11T12:05:38Z</time>
      </trkpt>
      <trkpt lat="44.48315" lon="1.55219">
        <ele>126.55</ele>
        <time>2023-05-11T12:05:48Z</time>
      </trkpt>
      <trkpt lat="44.48309" lon="1.55208">
        <ele>126.55</ele>
        <time>2023-05-11T12:05:56Z</time>
      </trkpt>
      <trkpt lat="44.48301" lon="1.55198">
        <ele>127.99</ele>
        <time>2023-05-11T12:06:04Z</time>
      </trkpt>
      <trkpt lat="44.48293" lon="1.55186">
        <ele>127.99</ele>
        <time>2023-05-11T12:06:13Z</time>
      </trkpt>
      <trkpt lat="44.48284" lon="1.55179">
        <ele>127.99</ele>
        <time>2023-05-11T12:06:21Z</time>
      </trkpt>
      <trkpt lat="44.48275" lon="1.55172">
        <ele>127.99</ele>
        <time>2023-05-11T12:06:28Z</time>
      </trkpt>
      <trkpt lat="44.48266" lon="1.55165">
        <ele>127.51</ele>
        <time>2023-05-11T12:06:36Z</time>
      </trkpt>
      <trkpt lat="44.48257" lon="1.55158">
        <ele>127.51</ele>
        <time>2023-05-11T12:06:44Z</time>
      </trkpt>
      <trkpt lat="44.48248" lon="1.55153">
        <ele>127.51</ele>
        <time>2023-05-11T12:06:52Z</time>
      </trkpt>
      <trkpt lat="44.48239" lon="1.55147">
        <ele>127.51</ele>
        <time>2023-05-11T12:07:00Z</time>
      </trkpt>
      <trkpt lat="44.4823" lon="1.55143">
        <ele>127.51</ele>
        <time>2023-05-11T12:07:07Z</time>
      </trkpt>
      <trkpt lat="44.4822" lon="1.55138">
        <ele>127.99</ele>
        <time>2023-05-11T12:07:16Z</time>
      </trkpt>
      <trkpt lat="44.48211" lon="1.55134">
        <ele>127.99</ele>
        <time>2023-05-11T12:07:23Z</time>
      </trkpt>
      <trkpt lat="44.48201" lon="1.55131">
        <ele>127.99</ele>
        <time>2023-05-11T12:07:30Z</time>
      </trkpt>
      <trkpt lat="44.48192" lon="1.55128">
        <ele>127.99</ele>
        <time>2023-05-11T12:07:37Z</time>
      </trkpt>
      <trkpt lat="44.48184" lon="1.55123">
        <ele>127.99</ele>
        <time>2023-05-11T12:07:44Z</time>
      </trkpt>
      <trkpt lat="44.48175" lon="1.55119">
        <ele>127.99</ele>
        <time>2023-05-11T12:07:51Z</time>
      </trkpt>
      <trkpt lat="44.48166" lon="1.55117">
        <ele>128.47</ele>
        <time>2023-05-11T12:07:59Z</time>
      </trkpt>
      <trkpt lat="44.48156" lon="1.55115">
        <ele>128.47</ele>
        <time>2023-05-11T12:08:07Z</time>
      </trkpt>
      <trkpt lat="44.48146" lon="1.55112">
        <ele>128.47</ele>
        <time>2023-05-11T12:08:16Z</time>
      </trkpt>
      <trkpt lat="44.48134" lon="1.55107">
        <ele>127.99</ele>
        <time>2023-05-11T12:08:25Z</time>
      </trkpt>
      <trkpt lat="44.48124" lon="1.55103">
        <ele>127.99</ele>
        <time>2023-05-11T12:08:33Z</time>
      </trkpt>
      <trkpt lat="44.48114" lon="1.55099">
        <ele>127.99</ele>
        <time>2023-05-11T12:08:41Z</time>
      </trkpt>
      <trkpt lat="44.48103" lon="1.55097">
        <ele>127.99</ele>
        <time>2023-05-11T12:08:49Z</time>
      </trkpt>
      <trkpt lat="44.48091" lon="1.55094">
        <ele>127.99</ele>
        <time>2023-05-11T12:08:59Z</time>
      </trkpt>
      <trkpt lat="44.48079" lon="1.55088">
        <ele>127.99</ele>
        <time>2023-05-11T12:09:08Z</time>
      </trkpt>
      <trkpt lat="44.48068" lon="1.55081">
        <ele>127.99</ele>
        <time>2023-05-11T12:09:19Z</time>
      </trkpt>
      <trkpt lat="44.48056" lon="1.55077">
        <ele>127.51</ele>
        <time>2023-05-11T12:09:29Z</time>
      </trkpt>
      <trkpt lat="44.48043" lon="1.55074">
        <ele>127.51</ele>
        <time>2023-05-11T12:09:39Z</time>
      </trkpt>
      <trkpt lat="44.48029" lon="1.5507">
        <ele>127.51</ele>
        <time>2023-05-11T12:09:49Z</time>
      </trkpt>
      <trkpt lat="44.48017" lon="1.55065">
        <ele>127.51</ele>
        <time>2023-05-11T12:09:59Z</time>
      </trkpt>
      <trkpt lat="44.48005" lon="1.55062">
        <ele>127.51</ele>
        <time>2023-05-11T12:10:07Z</time>
      </trkpt>
      <trkpt lat="44.47994" lon="1.55059">
        <ele>127.51</ele>
        <time>2023-05-11T12:10:16Z</time>
      </trkpt>
      <trkpt lat="44.47984" lon="1.55055">
        <ele>127.99</ele>
        <time>2023-05-11T12:10:27Z</time>
      </trkpt>
      <trkpt lat="44.47967" lon="1.55047">
        <ele>128.47</ele>
        <time>2023-05-11T12:10:44Z</time>
      </trkpt>
      <trkpt lat="44.47955" lon="1.55044">
        <ele>128.47</ele>
        <time>2023-05-11T12:10:52Z</time>
      </trkpt>
      <trkpt lat="44.47943" lon="1.55042">
        <ele>128.47</ele>
        <time>2023-05-11T12:11:02Z</time>
      </trkpt>
      <trkpt lat="44.47928" lon="1.5504">
        <ele>128.47</ele>
        <time>2023-05-11T12:11:13Z</time>
      </trkpt>
      <trkpt lat="44.47913" lon="1.55042">
        <ele>128.47</ele>
        <time>2023-05-11T12:11:23Z</time>
      </trkpt>
      <trkpt lat="44.47894" lon="1.55045">
        <ele>128.47</ele>
        <time>2023-05-11T12:11:34Z</time>
      </trkpt>
      <trkpt lat="44.47882" lon="1.55044">
        <ele>128.47</ele>
        <time>2023-05-11T12:11:45Z</time>
      </trkpt>
      <trkpt lat="44.47867" lon="1.55041">
        <ele>128.47</ele>
        <time>2023-05-11T12:11:55Z</time>
      </trkpt>
      <trkpt lat="44.47858" lon="1.55036">
        <ele>128.47</ele>
        <time>2023-05-11T12:12:03Z</time>
      </trkpt>
      <trkpt lat="44.47853" lon="1.55021">
        <ele>127.99</ele>
        <time>2023-05-11T12:12:12Z</time>
      </trkpt>
      <trkpt lat="44.47852" lon="1.55005">
        <ele>128.47</ele>
        <time>2023-05-11T12:12:22Z</time>
      </trkpt>
      <trkpt lat="44.47851" lon="1.5499">
        <ele>128.95</ele>
        <time>2023-05-11T12:12:31Z</time>
      </trkpt>
      <trkpt lat="44.4785" lon="1.54974">
        <ele>128.95</ele>
        <time>2023-05-11T12:12:41Z</time>
      </trkpt>
      <trkpt lat="44.47848" lon="1.54959">
        <ele>129.43</ele>
        <time>2023-05-11T12:12:50Z</time>
      </trkpt>
      <trkpt lat="44.4784" lon="1.54947">
        <ele>129.92</ele>
        <time>2023-05-11T12:12:59Z</time>
      </trkpt>
      <trkpt lat="44.47831" lon="1.54937">
        <ele>129.43</ele>
        <time>2023-05-11T12:13:07Z</time>
      </trkpt>
      <trkpt lat="44.47822" lon="1.54928">
        <ele>129.43</ele>
        <time>2023-05-11T12:13:15Z</time>
      </trkpt>
      <trkpt lat="44.47813" lon="1.54921">
        <ele>129.43</ele>
        <time>2023-05-11T12:13:23Z</time>
      </trkpt>
      <trkpt lat="44.47804" lon="1.54915">
        <ele>129.92</ele>
        <time>2023-05-11T12:13:31Z</time>
      </trkpt>
      <trkpt lat="44.47795" lon="1.5491">
        <ele>130.4</ele>
        <time>2023-05-11T12:13:39Z</time>
      </trkpt>
      <trkpt lat="44.47784" lon="1.54904">
        <ele>130.4</ele>
        <time>2023-05-11T12:13:47Z</time>
      </trkpt>
      <trkpt lat="44.47775" lon="1.549">
        <ele>130.4</ele>
        <time>2023-05-11T12:13:55Z</time>
      </trkpt>
      <trkpt lat="44.47765" lon="1.54895">
        <ele>130.4</ele>
        <time>2023-05-11T12:14:03Z</time>
      </trkpt>
      <trkpt lat="44.47756" lon="1.5489">
        <ele>130.4</ele>
        <time>2023-05-11T12:14:11Z</time>
      </trkpt>
      <trkpt lat="44.47748" lon="1.54884">
        <ele>130.4</ele>
        <time>2023-05-11T12:14:19Z</time>
      </trkpt>
      <trkpt lat="44.4774" lon="1.54877">
        <ele>130.4</ele>
        <time>2023-05-11T12:14:29Z</time>
      </trkpt>
      <trkpt lat="44.47731" lon="1.54864">
        <ele>130.4</ele>
        <time>2023-05-11T12:14:40Z</time>
      </trkpt>
      <trkpt lat="44.47727" lon="1.54853">
        <ele>130.88</ele>
        <time>2023-05-11T12:14:50Z</time>
      </trkpt>
      <trkpt lat="44.47733" lon="1.54843">
        <ele>131.36</ele>
        <time>2023-05-11T12:15:06Z</time>
      </trkpt>
      <trkpt lat="44.47738" lon="1.54832">
        <ele>131.36</ele>
        <time>2023-05-11T12:15:22Z</time>
      </trkpt>
      <trkpt lat="44.47747" lon="1.54825">
        <ele>131.36</ele>
        <time>2023-05-11T12:15:32Z</time>
      </trkpt>
      <trkpt lat="44.47741" lon="1.54812">
        <ele>131.36</ele>
        <time>2023-05-11T12:15:42Z</time>
      </trkpt>
      <trkpt lat="44.47732" lon="1.54804">
        <ele>131.36</ele>
        <time>2023-05-11T12:15:51Z</time>
      </trkpt>
      <trkpt lat="44.47724" lon="1.54797">
        <ele>131.36</ele>
        <time>2023-05-11T12:16:00Z</time>
      </trkpt>
      <trkpt lat="44.47715" lon="1.5479">
        <ele>131.36</ele>
        <time>2023-05-11T12:16:12Z</time>
      </trkpt>
      <trkpt lat="44.47707" lon="1.54785">
        <ele>131.36</ele>
        <time>2023-05-11T12:16:22Z</time>
      </trkpt>
      <trkpt lat="44.47695" lon="1.5478">
        <ele>131.36</ele>
        <time>2023-05-11T12:16:34Z</time>
      </trkpt>
      <trkpt lat="44.47683" lon="1.54773">
        <ele>131.36</ele>
        <time>2023-05-11T12:16:44Z</time>
      </trkpt>
      <trkpt lat="44.47672" lon="1.54767">
        <ele>131.36</ele>
        <time>2023-05-11T12:16:53Z</time>
      </trkpt>
      <trkpt lat="44.47662" lon="1.54764">
        <ele>131.36</ele>
        <time>2023-05-11T12:17:01Z</time>
      </trkpt>
      <trkpt lat="44.47652" lon="1.5476">
        <ele>130.88</ele>
        <time>2023-05-11T12:17:10Z</time>
      </trkpt>
      <trkpt lat="44.47641" lon="1.54758">
        <ele>130.88</ele>
        <time>2023-05-11T12:17:19Z</time>
      </trkpt>
      <trkpt lat="44.47632" lon="1.54754">
        <ele>130.88</ele>
        <time>2023-05-11T12:17:27Z</time>
      </trkpt>
      <trkpt lat="44.47623" lon="1.54751">
        <ele>130.88</ele>
        <time>2023-05-11T12:17:35Z</time>
      </trkpt>
      <trkpt lat="44.47612" lon="1.54747">
        <ele>130.88</ele>
        <time>2023-05-11T12:17:44Z</time>
      </trkpt>
      <trkpt lat="44.47602" lon="1.54745">
        <ele>131.36</ele>
        <time>2023-05-11T12:17:53Z</time>
      </trkpt>
      <trkpt lat="44.47591" lon="1.54743">
        <ele>132.32</ele>
        <time>2023-05-11T12:18:03Z</time>
      </trkpt>
      <trkpt lat="44.47581" lon="1.5474">
        <ele>132.8</ele>
        <time>2023-05-11T12:18:14Z</time>
      </trkpt>
      <trkpt lat="44.47569" lon="1.54738">
        <ele>133.28</ele>
        <time>2023-05-11T12:18:26Z</time>
      </trkpt>
      <trkpt lat="44.47553" lon="1.54739">
        <ele>134.72</ele>
        <time>2023-05-11T12:18:39Z</time>
      </trkpt>
      <trkpt lat="44.47543" lon="1.54734">
        <ele>135.68</ele>
        <time>2023-05-11T12:18:50Z</time>
      </trkpt>
      <trkpt lat="44.47531" lon="1.54736">
        <ele>137.13</ele>
        <time>2023-05-11T12:19:02Z</time>
      </trkpt>
      <trkpt lat="44.47515" lon="1.54741">
        <ele>137.61</ele>
        <time>2023-05-11T12:19:14Z</time>
      </trkpt>
      <trkpt lat="44.475" lon="1.54747">
        <ele>137.61</ele>
        <time>2023-05-11T12:19:26Z</time>
      </trkpt>
      <trkpt lat="44.47488" lon="1.54751">
        <ele>137.61</ele>
        <time>2023-05-11T12:19:37Z</time>
      </trkpt>
      <trkpt lat="44.47475" lon="1.54759">
        <ele>135.68</ele>
        <time>2023-05-11T12:19:48Z</time>
      </trkpt>
      <trkpt lat="44.47462" lon="1.54761">
        <ele>134.72</ele>
        <time>2023-05-11T12:19:58Z</time>
      </trkpt>
      <trkpt lat="44.47449" lon="1.54766">
        <ele>133.28</ele>
        <time>2023-05-11T12:20:10Z</time>
      </trkpt>
      <trkpt lat="44.47438" lon="1.54774">
        <ele>132.32</ele>
        <time>2023-05-11T12:20:20Z</time>
      </trkpt>
      <trkpt lat="44.47426" lon="1.54781">
        <ele>131.84</ele>
        <time>2023-05-11T12:20:33Z</time>
      </trkpt>
      <trkpt lat="44.47413" lon="1.54787">
        <ele>131.36</ele>
        <time>2023-05-11T12:20:44Z</time>
      </trkpt>
      <trkpt lat="44.47403" lon="1.5479">
        <ele>131.36</ele>
        <time>2023-05-11T12:20:54Z</time>
      </trkpt>
      <trkpt lat="44.47394" lon="1.54791">
        <ele>131.36</ele>
        <time>2023-05-11T12:21:02Z</time>
      </trkpt>
      <trkpt lat="44.47383" lon="1.54791">
        <ele>131.36</ele>
        <time>2023-05-11T12:21:12Z</time>
      </trkpt>
      <trkpt lat="44.47373" lon="1.54793">
        <ele>132.32</ele>
        <time>2023-05-11T12:21:21Z</time>
      </trkpt>
      <trkpt lat="44.47362" lon="1.54795">
        <ele>132.8</ele>
        <time>2023-05-11T12:21:31Z</time>
      </trkpt>
      <trkpt lat="44.4735" lon="1.54799">
        <ele>133.76</ele>
        <time>2023-05-11T12:21:41Z</time>
      </trkpt>
      <trkpt lat="44.47336" lon="1.54805">
        <ele>134.72</ele>
        <time>2023-05-11T12:21:51Z</time>
      </trkpt>
      <trkpt lat="44.47324" lon="1.54808">
        <ele>135.68</ele>
        <time>2023-05-11T12:22:01Z</time>
      </trkpt>
      <trkpt lat="44.47313" lon="1.54809">
        <ele>135.68</ele>
        <time>2023-05-11T12:22:10Z</time>
      </trkpt>
      <trkpt lat="44.47303" lon="1.5481">
        <ele>136.16</ele>
        <time>2023-05-11T12:22:19Z</time>
      </trkpt>
      <trkpt lat="44.47292" lon="1.54813">
        <ele>135.68</ele>
        <time>2023-05-11T12:22:27Z</time>
      </trkpt>
      <trkpt lat="44.47282" lon="1.54817">
        <ele>134.24</ele>
        <time>2023-05-11T12:22:35Z</time>
      </trkpt>
      <trkpt lat="44.4727" lon="1.54822">
        <ele>133.28</ele>
        <time>2023-05-11T12:22:44Z</time>
      </trkpt>
      <trkpt lat="44.47259" lon="1.54825">
        <ele>132.8</ele>
        <time>2023-05-11T12:22:53Z</time>
      </trkpt>
      <trkpt lat="44.47249" lon="1.54829">
        <ele>132.8</ele>
        <time>2023-05-11T12:23:01Z</time>
      </trkpt>
      <trkpt lat="44.47238" lon="1.54836">
        <ele>132.8</ele>
        <time>2023-05-11T12:23:13Z</time>
      </trkpt>
      <trkpt lat="44.47226" lon="1.54838">
        <ele>135.2</ele>
        <time>2023-05-11T12:23:25Z</time>
      </trkpt>
      <trkpt lat="44.47214" lon="1.54841">
        <ele>136.16</ele>
        <time>2023-05-11T12:23:37Z</time>
      </trkpt>
      <trkpt lat="44.47202" lon="1.54844">
        <ele>137.61</ele>
        <time>2023-05-11T12:23:49Z</time>
      </trkpt>
      <trkpt lat="44.4719" lon="1.54849">
        <ele>138.09</ele>
        <time>2023-05-11T12:23:59Z</time>
      </trkpt>
      <trkpt lat="44.47179" lon="1.54851">
        <ele>138.09</ele>
        <time>2023-05-11T12:24:08Z</time>
      </trkpt>
      <trkpt lat="44.47167" lon="1.54854">
        <ele>138.09</ele>
        <time>2023-05-11T12:24:17Z</time>
      </trkpt>
      <trkpt lat="44.47158" lon="1.54854">
        <ele>138.09</ele>
        <time>2023-05-11T12:24:26Z</time>
      </trkpt>
      <trkpt lat="44.47147" lon="1.54855">
        <ele>138.09</ele>
        <time>2023-05-11T12:24:36Z</time>
      </trkpt>
      <trkpt lat="44.47137" lon="1.54861">
        <ele>136.16</ele>
        <time>2023-05-11T12:24:46Z</time>
      </trkpt>
      <trkpt lat="44.47126" lon="1.54865">
        <ele>135.2</ele>
        <time>2023-05-11T12:24:56Z</time>
      </trkpt>
      <trkpt lat="44.47115" lon="1.54869">
        <ele>134.24</ele>
        <time>2023-05-11T12:25:06Z</time>
      </trkpt>
      <trkpt lat="44.47102" lon="1.54871">
        <ele>133.76</ele>
        <time>2023-05-11T12:25:16Z</time>
      </trkpt>
      <trkpt lat="44.4709" lon="1.54872">
        <ele>133.28</ele>
        <time>2023-05-11T12:25:25Z</time>
      </trkpt>
      <trkpt lat="44.4708" lon="1.54873">
        <ele>132.32</ele>
        <time>2023-05-11T12:25:34Z</time>
      </trkpt>
      <trkpt lat="44.47069" lon="1.54872">
        <ele>132.32</ele>
        <time>2023-05-11T12:25:44Z</time>
      </trkpt>
      <trkpt lat="44.47058" lon="1.54875">
        <ele>132.32</ele>
        <time>2023-05-11T12:25:55Z</time>
      </trkpt>
      <trkpt lat="44.47047" lon="1.54874">
        <ele>132.32</ele>
        <time>2023-05-11T12:26:04Z</time>
      </trkpt>
      <trkpt lat="44.47036" lon="1.54871">
        <ele>132.32</ele>
        <time>2023-05-11T12:26:13Z</time>
      </trkpt>
      <trkpt lat="44.47024" lon="1.5487">
        <ele>132.32</ele>
        <time>2023-05-11T12:26:23Z</time>
      </trkpt>
      <trkpt lat="44.47013" lon="1.5487">
        <ele>132.32</ele>
        <time>2023-05-11T12:26:32Z</time>
      </trkpt>
      <trkpt lat="44.47002" lon="1.54866">
        <ele>132.32</ele>
        <time>2023-05-11T12:26:42Z</time>
      </trkpt>
      <trkpt lat="44.46992" lon="1.5486">
        <ele>134.72</ele>
        <time>2023-05-11T12:26:55Z</time>
      </trkpt>
      <trkpt lat="44.46982" lon="1.54855">
        <ele>137.13</ele>
        <time>2023-05-11T12:27:08Z</time>
      </trkpt>
      <trkpt lat="44.46972" lon="1.54847">
        <ele>139.05</ele>
        <time>2023-05-11T12:27:22Z</time>
      </trkpt>
      <trkpt lat="44.46962" lon="1.54841">
        <ele>140.97</ele>
        <time>2023-05-11T12:27:34Z</time>
      </trkpt>
      <trkpt lat="44.46953" lon="1.54834">
        <ele>142.41</ele>
        <time>2023-05-11T12:27:45Z</time>
      </trkpt>
      <trkpt lat="44.46945" lon="1.54823">
        <ele>142.89</ele>
        <time>2023-05-11T12:27:55Z</time>
      </trkpt>
      <trkpt lat="44.46938" lon="1.54811">
        <ele>142.89</ele>
        <time>2023-05-11T12:28:05Z</time>
      </trkpt>
      <trkpt lat="44.4693" lon="1.54799">
        <ele>142.89</ele>
        <time>2023-05-11T12:28:15Z</time>
      </trkpt>
      <trkpt lat="44.46921" lon="1.54787">
        <ele>144.34</ele>
        <time>2023-05-11T12:28:28Z</time>
      </trkpt>
      <trkpt lat="44.46914" lon="1.54775">
        <ele>145.3</ele>
        <time>2023-05-11T12:28:39Z</time>
      </trkpt>
      <trkpt lat="44.46905" lon="1.54763">
        <ele>146.26</ele>
        <time>2023-05-11T12:28:50Z</time>
      </trkpt>
      <trkpt lat="44.46896" lon="1.54754">
        <ele>147.7</ele>
        <time>2023-05-11T12:29:03Z</time>
      </trkpt>
      <trkpt lat="44.46886" lon="1.54741">
        <ele>148.18</ele>
        <time>2023-05-11T12:29:17Z</time>
      </trkpt>
      <trkpt lat="44.46877" lon="1.54728">
        <ele>147.7</ele>
        <time>2023-05-11T12:29:28Z</time>
      </trkpt>
      <trkpt lat="44.46869" lon="1.54718">
        <ele>146.26</ele>
        <time>2023-05-11T12:29:39Z</time>
      </trkpt>
      <trkpt lat="44.46859" lon="1.54707">
        <ele>144.82</ele>
        <time>2023-05-11T12:29:50Z</time>
      </trkpt>
      <trkpt lat="44.4685" lon="1.54695">
        <ele>142.41</ele>
        <time>2023-05-11T12:30:01Z</time>
      </trkpt>
      <trkpt lat="44.46843" lon="1.54681">
        <ele>141.45</ele>
        <time>2023-05-11T12:30:11Z</time>
      </trkpt>
      <trkpt lat="44.46837" lon="1.54668">
        <ele>140.01</ele>
        <time>2023-05-11T12:30:21Z</time>
      </trkpt>
      <trkpt lat="44.46832" lon="1.54655">
        <ele>138.09</ele>
        <time>2023-05-11T12:30:33Z</time>
      </trkpt>
      <trkpt lat="44.46827" lon="1.54638">
        <ele>136.64</ele>
        <time>2023-05-11T12:30:46Z</time>
      </trkpt>
      <trkpt lat="44.46821" lon="1.54621">
        <ele>135.68</ele>
        <time>2023-05-11T12:30:59Z</time>
      </trkpt>
      <trkpt lat="44.46816" lon="1.54602">
        <ele>133.76</ele>
        <time>2023-05-11T12:31:09Z</time>
      </trkpt>
      <trkpt lat="44.46814" lon="1.54587">
        <ele>132.32</ele>
        <time>2023-05-11T12:31:26Z</time>
      </trkpt>
      <trkpt lat="44.46809" lon="1.54571">
        <ele>131.84</ele>
        <time>2023-05-11T12:31:37Z</time>
      </trkpt>
      <trkpt lat="44.46808" lon="1.54557">
        <ele>131.36</ele>
        <time>2023-05-11T12:31:46Z</time>
      </trkpt>
      <trkpt lat="44.46807" lon="1.54543">
        <ele>130.88</ele>
        <time>2023-05-11T12:31:54Z</time>
      </trkpt>
      <trkpt lat="44.46806" lon="1.54528">
        <ele>130.4</ele>
        <time>2023-05-11T12:32:04Z</time>
      </trkpt>
      <trkpt lat="44.46807" lon="1.54518">
        <ele>129.43</ele>
        <time>2023-05-11T12:34:59Z</time>
      </trkpt>
      <trkpt lat="44.46806" lon="1.54505">
        <ele>129.43</ele>
        <time>2023-05-11T12:35:18Z</time>
      </trkpt>
      <trkpt lat="44.46802" lon="1.54492">
        <ele>129.43</ele>
        <time>2023-05-11T12:35:27Z</time>
      </trkpt>
      <trkpt lat="44.46801" lon="1.54479">
        <ele>129.43</ele>
        <time>2023-05-11T12:35:35Z</time>
      </trkpt>
      <trkpt lat="44.46807" lon="1.54467">
        <ele>129.43</ele>
        <time>2023-05-11T12:35:44Z</time>
      </trkpt>
      <trkpt lat="44.46818" lon="1.54463">
        <ele>129.43</ele>
        <time>2023-05-11T12:35:53Z</time>
      </trkpt>
      <trkpt lat="44.46827" lon="1.54461">
        <ele>129.92</ele>
        <time>2023-05-11T12:36:02Z</time>
      </trkpt>
      <trkpt lat="44.46838" lon="1.54458">
        <ele>130.88</ele>
        <time>2023-05-11T12:36:12Z</time>
      </trkpt>
      <trkpt lat="44.46846" lon="1.54449">
        <ele>131.36</ele>
        <time>2023-05-11T12:36:22Z</time>
      </trkpt>
      <trkpt lat="44.46849" lon="1.54435">
        <ele>131.84</ele>
        <time>2023-05-11T12:36:31Z</time>
      </trkpt>
      <trkpt lat="44.46851" lon="1.54419">
        <ele>131.84</ele>
        <time>2023-05-11T12:36:40Z</time>
      </trkpt>
      <trkpt lat="44.46851" lon="1.54403">
        <ele>131.84</ele>
        <time>2023-05-11T12:36:49Z</time>
      </trkpt>
      <trkpt lat="44.46853" lon="1.54388">
        <ele>132.32</ele>
        <time>2023-05-11T12:36:58Z</time>
      </trkpt>
      <trkpt lat="44.46862" lon="1.54382">
        <ele>134.24</ele>
        <time>2023-05-11T12:37:07Z</time>
      </trkpt>
      <trkpt lat="44.46872" lon="1.54388">
        <ele>134.72</ele>
        <time>2023-05-11T12:37:16Z</time>
      </trkpt>
      <trkpt lat="44.46883" lon="1.54394">
        <ele>135.68</ele>
        <time>2023-05-11T12:37:26Z</time>
      </trkpt>
      <trkpt lat="44.46892" lon="1.544">
        <ele>137.13</ele>
        <time>2023-05-11T12:37:36Z</time>
      </trkpt>
      <trkpt lat="44.46902" lon="1.544">
        <ele>138.09</ele>
        <time>2023-05-11T12:37:46Z</time>
      </trkpt>
      <trkpt lat="44.46911" lon="1.54397">
        <ele>139.53</ele>
        <time>2023-05-11T12:37:57Z</time>
      </trkpt>
      <trkpt lat="44.46922" lon="1.54397">
        <ele>140.49</ele>
        <time>2023-05-11T12:38:07Z</time>
      </trkpt>
      <trkpt lat="44.46933" lon="1.544">
        <ele>141.93</ele>
        <time>2023-05-11T12:38:17Z</time>
      </trkpt>
      <trkpt lat="44.46943" lon="1.54403">
        <ele>141.93</ele>
        <time>2023-05-11T12:38:27Z</time>
      </trkpt>
      <trkpt lat="44.46953" lon="1.54404">
        <ele>142.89</ele>
        <time>2023-05-11T12:38:37Z</time>
      </trkpt>
      <trkpt lat="44.46963" lon="1.54403">
        <ele>142.89</ele>
        <time>2023-05-11T12:38:46Z</time>
      </trkpt>
      <trkpt lat="44.46974" lon="1.54402">
        <ele>142.89</ele>
        <time>2023-05-11T12:38:55Z</time>
      </trkpt>
      <trkpt lat="44.46986" lon="1.54401">
        <ele>143.85</ele>
        <time>2023-05-11T12:39:05Z</time>
      </trkpt>
      <trkpt lat="44.46996" lon="1.544">
        <ele>144.34</ele>
        <time>2023-05-11T12:39:14Z</time>
      </trkpt>
      <trkpt lat="44.47005" lon="1.54399">
        <ele>146.26</ele>
        <time>2023-05-11T12:39:24Z</time>
      </trkpt>
      <trkpt lat="44.47015" lon="1.54396">
        <ele>147.22</ele>
        <time>2023-05-11T12:39:34Z</time>
      </trkpt>
      <trkpt lat="44.47025" lon="1.54391">
        <ele>147.7</ele>
        <time>2023-05-11T12:39:45Z</time>
      </trkpt>
      <trkpt lat="44.47035" lon="1.54388">
        <ele>149.62</ele>
        <time>2023-05-11T12:39:56Z</time>
      </trkpt>
      <trkpt lat="44.47044" lon="1.54383">
        <ele>150.1</ele>
        <time>2023-05-11T12:40:07Z</time>
      </trkpt>
      <trkpt lat="44.47051" lon="1.54372">
        <ele>152.03</ele>
        <time>2023-05-11T12:40:20Z</time>
      </trkpt>
      <trkpt lat="44.47055" lon="1.54359">
        <ele>153.47</ele>
        <time>2023-05-11T12:40:32Z</time>
      </trkpt>
      <trkpt lat="44.47056" lon="1.54345">
        <ele>154.91</ele>
        <time>2023-05-11T12:40:43Z</time>
      </trkpt>
      <trkpt lat="44.4706" lon="1.54332">
        <ele>155.87</ele>
        <time>2023-05-11T12:40:54Z</time>
      </trkpt>
      <trkpt lat="44.47066" lon="1.54319">
        <ele>157.79</ele>
        <time>2023-05-11T12:41:10Z</time>
      </trkpt>
      <trkpt lat="44.47067" lon="1.54292">
        <ele>160.68</ele>
        <time>2023-05-11T12:41:33Z</time>
      </trkpt>
      <trkpt lat="44.47068" lon="1.5427">
        <ele>162.6</ele>
        <time>2023-05-11T12:41:49Z</time>
      </trkpt>
      <trkpt lat="44.4707" lon="1.54253">
        <ele>164.04</ele>
        <time>2023-05-11T12:42:04Z</time>
      </trkpt>
      <trkpt lat="44.47073" lon="1.54236">
        <ele>165.96</ele>
        <time>2023-05-11T12:42:18Z</time>
      </trkpt>
      <trkpt lat="44.47079" lon="1.5424">
        <ele>165.96</ele>
        <time>2023-05-11T12:43:29Z</time>
      </trkpt>
      <trkpt lat="44.471" lon="1.54257">
        <ele>169.81</ele>
        <time>2023-05-11T12:44:20Z</time>
      </trkpt>
      <trkpt lat="44.47116" lon="1.54274">
        <ele>172.69</ele>
        <time>2023-05-11T12:44:43Z</time>
      </trkpt>
      <trkpt lat="44.47138" lon="1.54296">
        <ele>176.54</ele>
        <time>2023-05-11T12:45:17Z</time>
      </trkpt>
      <trkpt lat="44.47135" lon="1.54282">
        <ele>177.98</ele>
        <time>2023-05-11T12:48:04Z</time>
      </trkpt>
      <trkpt lat="44.47133" lon="1.54265">
        <ele>178.94</ele>
        <time>2023-05-11T12:48:17Z</time>
      </trkpt>
      <trkpt lat="44.47131" lon="1.54245">
        <ele>179.9</ele>
        <time>2023-05-11T12:48:32Z</time>
      </trkpt>
      <trkpt lat="44.47127" lon="1.54227">
        <ele>180.87</ele>
        <time>2023-05-11T12:49:24Z</time>
      </trkpt>
      <trkpt lat="44.47124" lon="1.54209">
        <ele>182.79</ele>
        <time>2023-05-11T12:49:36Z</time>
      </trkpt>
      <trkpt lat="44.4712" lon="1.54192">
        <ele>182.79</ele>
        <time>2023-05-11T12:49:46Z</time>
      </trkpt>
      <trkpt lat="44.47115" lon="1.54175">
        <ele>183.27</ele>
        <time>2023-05-11T12:49:56Z</time>
      </trkpt>
      <trkpt lat="44.47111" lon="1.54155">
        <ele>183.75</ele>
        <time>2023-05-11T12:50:08Z</time>
      </trkpt>
      <trkpt lat="44.47105" lon="1.54136">
        <ele>184.23</ele>
        <time>2023-05-11T12:50:20Z</time>
      </trkpt>
      <trkpt lat="44.47105" lon="1.54117">
        <ele>184.23</ele>
        <time>2023-05-11T12:50:30Z</time>
      </trkpt>
      <trkpt lat="44.47104" lon="1.54096">
        <ele>185.67</ele>
        <time>2023-05-11T12:50:41Z</time>
      </trkpt>
      <trkpt lat="44.47105" lon="1.54076">
        <ele>185.67</ele>
        <time>2023-05-11T12:50:53Z</time>
      </trkpt>
      <trkpt lat="44.47107" lon="1.54058">
        <ele>186.15</ele>
        <time>2023-05-11T12:51:05Z</time>
      </trkpt>
      <trkpt lat="44.4711" lon="1.5404">
        <ele>186.63</ele>
        <time>2023-05-11T12:51:15Z</time>
      </trkpt>
      <trkpt lat="44.47116" lon="1.54024">
        <ele>188.08</ele>
        <time>2023-05-11T12:51:27Z</time>
      </trkpt>
      <trkpt lat="44.47125" lon="1.54006">
        <ele>189.52</ele>
        <time>2023-05-11T12:51:41Z</time>
      </trkpt>
      <trkpt lat="44.47134" lon="1.53991">
        <ele>190.48</ele>
        <time>2023-05-11T12:51:52Z</time>
      </trkpt>
      <trkpt lat="44.47142" lon="1.53979">
        <ele>190.96</ele>
        <time>2023-05-11T12:52:04Z</time>
      </trkpt>
      <trkpt lat="44.47152" lon="1.53959">
        <ele>191.92</ele>
        <time>2023-05-11T12:52:18Z</time>
      </trkpt>
      <trkpt lat="44.47161" lon="1.53944">
        <ele>191.92</ele>
        <time>2023-05-11T12:52:29Z</time>
      </trkpt>
      <trkpt lat="44.47167" lon="1.53928">
        <ele>191.92</ele>
        <time>2023-05-11T12:52:40Z</time>
      </trkpt>
      <trkpt lat="44.47176" lon="1.53915">
        <ele>191.92</ele>
        <time>2023-05-11T12:52:51Z</time>
      </trkpt>
      <trkpt lat="44.47187" lon="1.53908">
        <ele>191.92</ele>
        <time>2023-05-11T12:53:02Z</time>
      </trkpt>
      <trkpt lat="44.47199" lon="1.53896">
        <ele>190.48</ele>
        <time>2023-05-11T12:53:12Z</time>
      </trkpt>
      <trkpt lat="44.4721" lon="1.53886">
        <ele>189.04</ele>
        <time>2023-05-11T12:53:21Z</time>
      </trkpt>
      <trkpt lat="44.47222" lon="1.53876">
        <ele>188.56</ele>
        <time>2023-05-11T12:53:31Z</time>
      </trkpt>
      <trkpt lat="44.47233" lon="1.53868">
        <ele>186.63</ele>
        <time>2023-05-11T12:53:44Z</time>
      </trkpt>
      <trkpt lat="44.47245" lon="1.5386">
        <ele>185.67</ele>
        <time>2023-05-11T12:53:56Z</time>
      </trkpt>
      <trkpt lat="44.47259" lon="1.53848">
        <ele>185.19</ele>
        <time>2023-05-11T12:54:07Z</time>
      </trkpt>
      <trkpt lat="44.47272" lon="1.53836">
        <ele>184.71</ele>
        <time>2023-05-11T12:54:20Z</time>
      </trkpt>
      <trkpt lat="44.47281" lon="1.53825">
        <ele>184.23</ele>
        <time>2023-05-11T12:54:32Z</time>
      </trkpt>
      <trkpt lat="44.47288" lon="1.53811">
        <ele>183.75</ele>
        <time>2023-05-11T12:54:44Z</time>
      </trkpt>
      <trkpt lat="44.47293" lon="1.53794">
        <ele>182.31</ele>
        <time>2023-05-11T12:54:55Z</time>
      </trkpt>
      <trkpt lat="44.473" lon="1.53777">
        <ele>181.35</ele>
        <time>2023-05-11T12:55:07Z</time>
      </trkpt>
      <trkpt lat="44.47304" lon="1.53764">
        <ele>180.87</ele>
        <time>2023-05-11T12:55:15Z</time>
      </trkpt>
      <trkpt lat="44.47307" lon="1.53751">
        <ele>179.42</ele>
        <time>2023-05-11T12:55:24Z</time>
      </trkpt>
      <trkpt lat="44.4731" lon="1.53737">
        <ele>178.46</ele>
        <time>2023-05-11T12:55:33Z</time>
      </trkpt>
      <trkpt lat="44.47313" lon="1.53722">
        <ele>177.98</ele>
        <time>2023-05-11T12:55:42Z</time>
      </trkpt>
      <trkpt lat="44.47315" lon="1.53706">
        <ele>176.54</ele>
        <time>2023-05-11T12:55:55Z</time>
      </trkpt>
      <trkpt lat="44.47316" lon="1.53684">
        <ele>175.1</ele>
        <time>2023-05-11T12:56:36Z</time>
      </trkpt>
      <trkpt lat="44.47322" lon="1.53672">
        <ele>172.69</ele>
        <time>2023-05-11T12:56:49Z</time>
      </trkpt>
      <trkpt lat="44.47331" lon="1.53659">
        <ele>171.73</ele>
        <time>2023-05-11T12:57:00Z</time>
      </trkpt>
      <trkpt lat="44.4735" lon="1.53658">
        <ele>168.85</ele>
        <time>2023-05-11T12:57:19Z</time>
      </trkpt>
      <trkpt lat="44.47342" lon="1.53636">
        <ele>165.96</ele>
        <time>2023-05-11T12:57:44Z</time>
      </trkpt>
      <trkpt lat="44.47331" lon="1.53623">
        <ele>163.56</ele>
        <time>2023-05-11T12:57:58Z</time>
      </trkpt>
      <trkpt lat="44.47337" lon="1.53591">
        <ele>164.52</ele>
        <time>2023-05-11T13:01:39Z</time>
      </trkpt>
      <trkpt lat="44.47355" lon="1.53587">
        <ele>168.37</ele>
        <time>2023-05-11T13:02:07Z</time>
      </trkpt>
      <trkpt lat="44.47374" lon="1.53568">
        <ele>171.73</ele>
        <time>2023-05-11T13:02:42Z</time>
      </trkpt>
      <trkpt lat="44.47386" lon="1.53556">
        <ele>173.66</ele>
        <time>2023-05-11T13:03:00Z</time>
      </trkpt>
      <trkpt lat="44.47399" lon="1.53545">
        <ele>174.62</ele>
        <time>2023-05-11T13:03:18Z</time>
      </trkpt>
      <trkpt lat="44.47426" lon="1.53536">
        <ele>178.94</ele>
        <time>2023-05-11T13:03:53Z</time>
      </trkpt>
      <trkpt lat="44.47445" lon="1.53523">
        <ele>182.79</ele>
        <time>2023-05-11T13:04:17Z</time>
      </trkpt>
      <trkpt lat="44.47451" lon="1.53505">
        <ele>186.15</ele>
        <time>2023-05-11T13:04:39Z</time>
      </trkpt>
      <trkpt lat="44.47463" lon="1.53487">
        <ele>190</ele>
        <time>2023-05-11T13:05:10Z</time>
      </trkpt>
      <trkpt lat="44.47459" lon="1.53464">
        <ele>193.84</ele>
        <time>2023-05-11T13:05:36Z</time>
      </trkpt>
      <trkpt lat="44.47448" lon="1.53453">
        <ele>195.28</ele>
        <time>2023-05-11T13:05:52Z</time>
      </trkpt>
      <trkpt lat="44.47445" lon="1.53433">
        <ele>198.17</ele>
        <time>2023-05-11T13:06:12Z</time>
      </trkpt>
      <trkpt lat="44.47437" lon="1.53422">
        <ele>200.09</ele>
        <time>2023-05-11T13:06:57Z</time>
      </trkpt>
      <trkpt lat="44.47421" lon="1.53423">
        <ele>200.09</ele>
        <time>2023-05-11T13:07:15Z</time>
      </trkpt>
      <trkpt lat="44.47408" lon="1.53427">
        <ele>200.09</ele>
        <time>2023-05-11T13:07:34Z</time>
      </trkpt>
      <trkpt lat="44.47392" lon="1.53425">
        <ele>200.09</ele>
        <time>2023-05-11T13:07:49Z</time>
      </trkpt>
      <trkpt lat="44.47377" lon="1.53421">
        <ele>200.09</ele>
        <time>2023-05-11T13:08:03Z</time>
      </trkpt>
      <trkpt lat="44.47363" lon="1.53422">
        <ele>200.09</ele>
        <time>2023-05-11T13:08:17Z</time>
      </trkpt>
      <trkpt lat="44.47346" lon="1.53422">
        <ele>199.13</ele>
        <time>2023-05-11T13:08:31Z</time>
      </trkpt>
      <trkpt lat="44.47331" lon="1.53422">
        <ele>198.17</ele>
        <time>2023-05-11T13:08:43Z</time>
      </trkpt>
      <trkpt lat="44.47317" lon="1.53423">
        <ele>198.17</ele>
        <time>2023-05-11T13:08:53Z</time>
      </trkpt>
      <trkpt lat="44.47303" lon="1.53417">
        <ele>197.69</ele>
        <time>2023-05-11T13:09:05Z</time>
      </trkpt>
      <trkpt lat="44.47291" lon="1.53402">
        <ele>198.17</ele>
        <time>2023-05-11T13:09:19Z</time>
      </trkpt>
      <trkpt lat="44.47282" lon="1.53389">
        <ele>197.69</ele>
        <time>2023-05-11T13:09:31Z</time>
      </trkpt>
      <trkpt lat="44.47273" lon="1.53373">
        <ele>199.13</ele>
        <time>2023-05-11T13:09:42Z</time>
      </trkpt>
      <trkpt lat="44.47265" lon="1.53357">
        <ele>199.13</ele>
        <time>2023-05-11T13:09:53Z</time>
      </trkpt>
      <trkpt lat="44.47258" lon="1.53344">
        <ele>197.69</ele>
        <time>2023-05-11T13:10:05Z</time>
      </trkpt>
      <trkpt lat="44.47254" lon="1.53334">
        <ele>197.69</ele>
        <time>2023-05-11T13:10:40Z</time>
      </trkpt>
      <trkpt lat="44.47242" lon="1.53337">
        <ele>197.21</ele>
        <time>2023-05-11T13:11:50Z</time>
      </trkpt>
      <trkpt lat="44.47232" lon="1.53338">
        <ele>195.77</ele>
        <time>2023-05-11T13:12:01Z</time>
      </trkpt>
      <trkpt lat="44.4722" lon="1.53326">
        <ele>194.8</ele>
        <time>2023-05-11T13:12:12Z</time>
      </trkpt>
      <trkpt lat="44.47221" lon="1.5331">
        <ele>193.84</ele>
        <time>2023-05-11T13:12:24Z</time>
      </trkpt>
      <trkpt lat="44.4722" lon="1.53291">
        <ele>192.88</ele>
        <time>2023-05-11T13:12:39Z</time>
      </trkpt>
      <trkpt lat="44.47218" lon="1.53271">
        <ele>190.96</ele>
        <time>2023-05-11T13:12:51Z</time>
      </trkpt>
      <trkpt lat="44.4721" lon="1.53256">
        <ele>189.52</ele>
        <time>2023-05-11T13:13:05Z</time>
      </trkpt>
      <trkpt lat="44.472" lon="1.53246">
        <ele>188.56</ele>
        <time>2023-05-11T13:13:16Z</time>
      </trkpt>
      <trkpt lat="44.47191" lon="1.53234">
        <ele>186.63</ele>
        <time>2023-05-11T13:13:30Z</time>
      </trkpt>
      <trkpt lat="44.47182" lon="1.53219">
        <ele>184.71</ele>
        <time>2023-05-11T13:13:44Z</time>
      </trkpt>
      <trkpt lat="44.47173" lon="1.53207">
        <ele>183.27</ele>
        <time>2023-05-11T13:13:56Z</time>
      </trkpt>
      <trkpt lat="44.47164" lon="1.53193">
        <ele>181.83</ele>
        <time>2023-05-11T13:14:09Z</time>
      </trkpt>
      <trkpt lat="44.47158" lon="1.53177">
        <ele>179.9</ele>
        <time>2023-05-11T13:14:21Z</time>
      </trkpt>
      <trkpt lat="44.47151" lon="1.53162">
        <ele>177.98</ele>
        <time>2023-05-11T13:14:34Z</time>
      </trkpt>
      <trkpt lat="44.47142" lon="1.5315">
        <ele>176.54</ele>
        <time>2023-05-11T13:14:46Z</time>
      </trkpt>
      <trkpt lat="44.47133" lon="1.53137">
        <ele>174.62</ele>
        <time>2023-05-11T13:14:58Z</time>
      </trkpt>
      <trkpt lat="44.47127" lon="1.53122">
        <ele>173.17</ele>
        <time>2023-05-11T13:15:12Z</time>
      </trkpt>
      <trkpt lat="44.47118" lon="1.5311">
        <ele>171.25</ele>
        <time>2023-05-11T13:15:25Z</time>
      </trkpt>
      <trkpt lat="44.47106" lon="1.53103">
        <ele>169.81</ele>
        <time>2023-05-11T13:15:39Z</time>
      </trkpt>
      <trkpt lat="44.47098" lon="1.5309">
        <ele>167.89</ele>
        <time>2023-05-11T13:15:54Z</time>
      </trkpt>
      <trkpt lat="44.47089" lon="1.53079">
        <ele>165.96</ele>
        <time>2023-05-11T13:16:12Z</time>
      </trkpt>
      <trkpt lat="44.4708" lon="1.53072">
        <ele>165.96</ele>
        <time>2023-05-11T13:16:56Z</time>
      </trkpt>
      <trkpt lat="44.47077" lon="1.53053">
        <ele>162.12</ele>
        <time>2023-05-11T13:17:14Z</time>
      </trkpt>
      <trkpt lat="44.47077" lon="1.53036">
        <ele>160.2</ele>
        <time>2023-05-11T13:17:28Z</time>
      </trkpt>
      <trkpt lat="44.47077" lon="1.53019">
        <ele>159.72</ele>
        <time>2023-05-11T13:17:40Z</time>
      </trkpt>
      <trkpt lat="44.47072" lon="1.53007">
        <ele>159.72</ele>
        <time>2023-05-11T13:17:52Z</time>
      </trkpt>
      <trkpt lat="44.47062" lon="1.52989">
        <ele>161.64</ele>
        <time>2023-05-11T13:18:08Z</time>
      </trkpt>
      <trkpt lat="44.47049" lon="1.5298">
        <ele>162.6</ele>
        <time>2023-05-11T13:18:24Z</time>
      </trkpt>
      <trkpt lat="44.47042" lon="1.52968">
        <ele>163.56</ele>
        <time>2023-05-11T13:18:56Z</time>
      </trkpt>
      <trkpt lat="44.47033" lon="1.52958">
        <ele>163.56</ele>
        <time>2023-05-11T13:19:08Z</time>
      </trkpt>
      <trkpt lat="44.47025" lon="1.52945">
        <ele>163.56</ele>
        <time>2023-05-11T13:19:26Z</time>
      </trkpt>
      <trkpt lat="44.47022" lon="1.52929">
        <ele>163.56</ele>
        <time>2023-05-11T13:19:36Z</time>
      </trkpt>
      <trkpt lat="44.47019" lon="1.52916">
        <ele>162.12</ele>
        <time>2023-05-11T13:19:44Z</time>
      </trkpt>
      <trkpt lat="44.47013" lon="1.52902">
        <ele>162.12</ele>
        <time>2023-05-11T13:19:52Z</time>
      </trkpt>
      <trkpt lat="44.47007" lon="1.52888">
        <ele>161.64</ele>
        <time>2023-05-11T13:20:01Z</time>
      </trkpt>
      <trkpt lat="44.47" lon="1.52876">
        <ele>160.68</ele>
        <time>2023-05-11T13:20:13Z</time>
      </trkpt>
      <trkpt lat="44.46994" lon="1.52863">
        <ele>159.24</ele>
        <time>2023-05-11T13:20:25Z</time>
      </trkpt>
      <trkpt lat="44.46987" lon="1.5285">
        <ele>158.75</ele>
        <time>2023-05-11T13:20:36Z</time>
      </trkpt>
      <trkpt lat="44.46977" lon="1.52841">
        <ele>157.31</ele>
        <time>2023-05-11T13:20:49Z</time>
      </trkpt>
      <trkpt lat="44.46967" lon="1.52834">
        <ele>156.83</ele>
        <time>2023-05-11T13:21:00Z</time>
      </trkpt>
      <trkpt lat="44.46956" lon="1.52827">
        <ele>156.83</ele>
        <time>2023-05-11T13:21:09Z</time>
      </trkpt>
      <trkpt lat="44.46947" lon="1.52819">
        <ele>156.35</ele>
        <time>2023-05-11T13:21:20Z</time>
      </trkpt>
      <trkpt lat="44.46942" lon="1.52808">
        <ele>156.35</ele>
        <time>2023-05-11T13:21:32Z</time>
      </trkpt>
      <trkpt lat="44.46936" lon="1.52794">
        <ele>156.35</ele>
        <time>2023-05-11T13:21:43Z</time>
      </trkpt>
      <trkpt lat="44.46925" lon="1.52788">
        <ele>156.35</ele>
        <time>2023-05-11T13:21:53Z</time>
      </trkpt>
      <trkpt lat="44.46917" lon="1.52787">
        <ele>155.87</ele>
        <time>2023-05-11T13:22:31Z</time>
      </trkpt>
      <trkpt lat="44.46907" lon="1.52778">
        <ele>153.95</ele>
        <time>2023-05-11T13:22:41Z</time>
      </trkpt>
      <trkpt lat="44.46899" lon="1.52769">
        <ele>152.99</ele>
        <time>2023-05-11T13:22:48Z</time>
      </trkpt>
      <trkpt lat="44.46891" lon="1.52759">
        <ele>152.03</ele>
        <time>2023-05-11T13:22:55Z</time>
      </trkpt>
      <trkpt lat="44.46883" lon="1.52752">
        <ele>151.54</ele>
        <time>2023-05-11T13:23:02Z</time>
      </trkpt>
      <trkpt lat="44.46872" lon="1.52747">
        <ele>151.54</ele>
        <time>2023-05-11T13:23:10Z</time>
      </trkpt>
      <trkpt lat="44.46859" lon="1.52746">
        <ele>151.06</ele>
        <time>2023-05-11T13:23:18Z</time>
      </trkpt>
      <trkpt lat="44.46855" lon="1.52736">
        <ele>153.95</ele>
        <time>2023-05-11T13:23:28Z</time>
      </trkpt>
      <trkpt lat="44.46852" lon="1.52722">
        <ele>153.95</ele>
        <time>2023-05-11T13:23:37Z</time>
      </trkpt>
      <trkpt lat="44.46842" lon="1.52717">
        <ele>150.1</ele>
        <time>2023-05-11T13:23:49Z</time>
      </trkpt>
      <trkpt lat="44.46832" lon="1.52719">
        <ele>148.66</ele>
        <time>2023-05-11T13:24:00Z</time>
      </trkpt>
      <trkpt lat="44.46827" lon="1.52709">
        <ele>147.7</ele>
        <time>2023-05-11T13:24:14Z</time>
      </trkpt>
      <trkpt lat="44.46833" lon="1.52697">
        <ele>146.74</ele>
        <time>2023-05-11T13:24:23Z</time>
      </trkpt>
      <trkpt lat="44.4684" lon="1.52686">
        <ele>145.3</ele>
        <time>2023-05-11T13:24:32Z</time>
      </trkpt>
      <trkpt lat="44.46846" lon="1.52674">
        <ele>144.34</ele>
        <time>2023-05-11T13:24:40Z</time>
      </trkpt>
      <trkpt lat="44.46854" lon="1.52666">
        <ele>143.37</ele>
        <time>2023-05-11T13:24:49Z</time>
      </trkpt>
      <trkpt lat="44.46862" lon="1.52655">
        <ele>141.93</ele>
        <time>2023-05-11T13:24:59Z</time>
      </trkpt>
      <trkpt lat="44.4687" lon="1.52645">
        <ele>140.97</ele>
        <time>2023-05-11T13:25:09Z</time>
      </trkpt>
      <trkpt lat="44.46878" lon="1.52635">
        <ele>140.01</ele>
        <time>2023-05-11T13:25:18Z</time>
      </trkpt>
      <trkpt lat="44.46885" lon="1.52622">
        <ele>138.57</ele>
        <time>2023-05-11T13:25:27Z</time>
      </trkpt>
      <trkpt lat="44.46887" lon="1.52609">
        <ele>137.13</ele>
        <time>2023-05-11T13:25:37Z</time>
      </trkpt>
      <trkpt lat="44.46879" lon="1.52601">
        <ele>135.2</ele>
        <time>2023-05-11T13:25:49Z</time>
      </trkpt>
      <trkpt lat="44.46868" lon="1.52597">
        <ele>132.8</ele>
        <time>2023-05-11T13:26:02Z</time>
      </trkpt>
      <trkpt lat="44.46856" lon="1.52594">
        <ele>130.88</ele>
        <time>2023-05-11T13:26:15Z</time>
      </trkpt>
      <trkpt lat="44.46839" lon="1.52596">
        <ele>127.99</ele>
        <time>2023-05-11T13:26:42Z</time>
      </trkpt>
      <trkpt lat="44.46825" lon="1.52601">
        <ele>126.07</ele>
        <time>2023-05-11T13:26:58Z</time>
      </trkpt>
      <trkpt lat="44.46812" lon="1.52605">
        <ele>124.15</ele>
        <time>2023-05-11T13:27:16Z</time>
      </trkpt>
      <trkpt lat="44.46805" lon="1.52596">
        <ele>123.19</ele>
        <time>2023-05-11T13:27:28Z</time>
      </trkpt>
      <trkpt lat="44.46807" lon="1.52578">
        <ele>121.74</ele>
        <time>2023-05-11T13:31:04Z</time>
      </trkpt>
      <trkpt lat="44.46817" lon="1.52574">
        <ele>122.22</ele>
        <time>2023-05-11T13:31:19Z</time>
      </trkpt>
      <trkpt lat="44.46832" lon="1.52568">
        <ele>122.22</ele>
        <time>2023-05-11T13:31:36Z</time>
      </trkpt>
      <trkpt lat="44.46851" lon="1.52568">
        <ele>123.67</ele>
        <time>2023-05-11T13:31:50Z</time>
      </trkpt>
      <trkpt lat="44.46867" lon="1.52568">
        <ele>123.67</ele>
        <time>2023-05-11T13:32:02Z</time>
      </trkpt>
      <trkpt lat="44.4688" lon="1.52569">
        <ele>123.67</ele>
        <time>2023-05-11T13:32:14Z</time>
      </trkpt>
      <trkpt lat="44.46897" lon="1.52573">
        <ele>123.19</ele>
        <time>2023-05-11T13:32:29Z</time>
      </trkpt>
      <trkpt lat="44.46914" lon="1.52573">
        <ele>123.67</ele>
        <time>2023-05-11T13:32:44Z</time>
      </trkpt>
      <trkpt lat="44.4693" lon="1.52572">
        <ele>124.15</ele>
        <time>2023-05-11T13:32:58Z</time>
      </trkpt>
      <trkpt lat="44.46956" lon="1.52566">
        <ele>124.63</ele>
        <time>2023-05-11T13:33:23Z</time>
      </trkpt>
      <trkpt lat="44.46975" lon="1.52557">
        <ele>124.15</ele>
        <time>2023-05-11T13:33:39Z</time>
      </trkpt>
      <trkpt lat="44.46995" lon="1.52548">
        <ele>124.15</ele>
        <time>2023-05-11T13:33:54Z</time>
      </trkpt>
      <trkpt lat="44.47012" lon="1.52544">
        <ele>124.15</ele>
        <time>2023-05-11T13:34:10Z</time>
      </trkpt>
      <trkpt lat="44.47027" lon="1.52542">
        <ele>124.15</ele>
        <time>2023-05-11T13:34:21Z</time>
      </trkpt>
      <trkpt lat="44.47042" lon="1.52539">
        <ele>124.63</ele>
        <time>2023-05-11T13:34:31Z</time>
      </trkpt>
      <trkpt lat="44.47055" lon="1.52533">
        <ele>124.63</ele>
        <time>2023-05-11T13:34:40Z</time>
      </trkpt>
      <trkpt lat="44.47065" lon="1.52523">
        <ele>125.11</ele>
        <time>2023-05-11T13:34:49Z</time>
      </trkpt>
      <trkpt lat="44.47076" lon="1.52514">
        <ele>125.11</ele>
        <time>2023-05-11T13:34:58Z</time>
      </trkpt>
      <trkpt lat="44.47086" lon="1.52506">
        <ele>125.11</ele>
        <time>2023-05-11T13:35:07Z</time>
      </trkpt>
      <trkpt lat="44.47096" lon="1.52498">
        <ele>125.11</ele>
        <time>2023-05-11T13:35:17Z</time>
      </trkpt>
      <trkpt lat="44.47106" lon="1.52493">
        <ele>126.07</ele>
        <time>2023-05-11T13:35:26Z</time>
      </trkpt>
      <trkpt lat="44.47118" lon="1.52485">
        <ele>126.07</ele>
        <time>2023-05-11T13:35:36Z</time>
      </trkpt>
      <trkpt lat="44.47129" lon="1.52479">
        <ele>125.59</ele>
        <time>2023-05-11T13:35:45Z</time>
      </trkpt>
      <trkpt lat="44.47139" lon="1.52473">
        <ele>126.07</ele>
        <time>2023-05-11T13:35:54Z</time>
      </trkpt>
      <trkpt lat="44.47148" lon="1.52466">
        <ele>126.07</ele>
        <time>2023-05-11T13:36:03Z</time>
      </trkpt>
      <trkpt lat="44.47159" lon="1.52459">
        <ele>126.55</ele>
        <time>2023-05-11T13:36:12Z</time>
      </trkpt>
      <trkpt lat="44.47169" lon="1.52451">
        <ele>126.07</ele>
        <time>2023-05-11T13:36:21Z</time>
      </trkpt>
      <trkpt lat="44.47178" lon="1.52441">
        <ele>126.55</ele>
        <time>2023-05-11T13:36:30Z</time>
      </trkpt>
      <trkpt lat="44.47188" lon="1.52433">
        <ele>126.55</ele>
        <time>2023-05-11T13:36:39Z</time>
      </trkpt>
      <trkpt lat="44.47197" lon="1.52425">
        <ele>126.55</ele>
        <time>2023-05-11T13:36:47Z</time>
      </trkpt>
      <trkpt lat="44.47206" lon="1.52419">
        <ele>126.55</ele>
        <time>2023-05-11T13:36:55Z</time>
      </trkpt>
      <trkpt lat="44.47216" lon="1.52412">
        <ele>126.55</ele>
        <time>2023-05-11T13:37:04Z</time>
      </trkpt>
      <trkpt lat="44.47225" lon="1.52404">
        <ele>126.55</ele>
        <time>2023-05-11T13:37:14Z</time>
      </trkpt>
      <trkpt lat="44.47235" lon="1.52394">
        <ele>127.03</ele>
        <time>2023-05-11T13:37:24Z</time>
      </trkpt>
      <trkpt lat="44.47244" lon="1.52385">
        <ele>127.03</ele>
        <time>2023-05-11T13:37:33Z</time>
      </trkpt>
      <trkpt lat="44.47253" lon="1.52376">
        <ele>127.03</ele>
        <time>2023-05-11T13:37:42Z</time>
      </trkpt>
      <trkpt lat="44.47263" lon="1.52367">
        <ele>127.51</ele>
        <time>2023-05-11T13:37:51Z</time>
      </trkpt>
      <trkpt lat="44.47273" lon="1.52357">
        <ele>127.03</ele>
        <time>2023-05-11T13:38:01Z</time>
      </trkpt>
      <trkpt lat="44.47283" lon="1.52348">
        <ele>127.03</ele>
        <time>2023-05-11T13:38:10Z</time>
      </trkpt>
      <trkpt lat="44.47294" lon="1.52342">
        <ele>127.51</ele>
        <time>2023-05-11T13:38:19Z</time>
      </trkpt>
      <trkpt lat="44.47304" lon="1.52336">
        <ele>127.99</ele>
        <time>2023-05-11T13:38:28Z</time>
      </trkpt>
      <trkpt lat="44.47314" lon="1.5233">
        <ele>127.99</ele>
        <time>2023-05-11T13:38:38Z</time>
      </trkpt>
      <trkpt lat="44.47326" lon="1.52323">
        <ele>128.47</ele>
        <time>2023-05-11T13:38:47Z</time>
      </trkpt>
      <trkpt lat="44.47336" lon="1.52315">
        <ele>128.95</ele>
        <time>2023-05-11T13:38:56Z</time>
      </trkpt>
      <trkpt lat="44.47346" lon="1.52307">
        <ele>128.47</ele>
        <time>2023-05-11T13:39:06Z</time>
      </trkpt>
      <trkpt lat="44.47355" lon="1.523">
        <ele>128.47</ele>
        <time>2023-05-11T13:39:14Z</time>
      </trkpt>
      <trkpt lat="44.47364" lon="1.52291">
        <ele>128.47</ele>
        <time>2023-05-11T13:39:23Z</time>
      </trkpt>
      <trkpt lat="44.47374" lon="1.52281">
        <ele>128.95</ele>
        <time>2023-05-11T13:39:33Z</time>
      </trkpt>
      <trkpt lat="44.47384" lon="1.52273">
        <ele>128.95</ele>
        <time>2023-05-11T13:39:43Z</time>
      </trkpt>
      <trkpt lat="44.47395" lon="1.52267">
        <ele>128.95</ele>
        <time>2023-05-11T13:39:52Z</time>
      </trkpt>
      <trkpt lat="44.47405" lon="1.52261">
        <ele>129.43</ele>
        <time>2023-05-11T13:40:01Z</time>
      </trkpt>
      <trkpt lat="44.47415" lon="1.52256">
        <ele>129.43</ele>
        <time>2023-05-11T13:40:11Z</time>
      </trkpt>
      <trkpt lat="44.47428" lon="1.52249">
        <ele>129.43</ele>
        <time>2023-05-11T13:40:21Z</time>
      </trkpt>
      <trkpt lat="44.4744" lon="1.52244">
        <ele>129.92</ele>
        <time>2023-05-11T13:40:31Z</time>
      </trkpt>
      <trkpt lat="44.47452" lon="1.52237">
        <ele>129.92</ele>
        <time>2023-05-11T13:40:40Z</time>
      </trkpt>
      <trkpt lat="44.47463" lon="1.52234">
        <ele>130.4</ele>
        <time>2023-05-11T13:40:49Z</time>
      </trkpt>
      <trkpt lat="44.47473" lon="1.52228">
        <ele>130.4</ele>
        <time>2023-05-11T13:40:58Z</time>
      </trkpt>
      <trkpt lat="44.47485" lon="1.52224">
        <ele>130.4</ele>
        <time>2023-05-11T13:41:07Z</time>
      </trkpt>
      <trkpt lat="44.47495" lon="1.5222">
        <ele>130.4</ele>
        <time>2023-05-11T13:41:16Z</time>
      </trkpt>
      <trkpt lat="44.47505" lon="1.52212">
        <ele>130.4</ele>
        <time>2023-05-11T13:41:25Z</time>
      </trkpt>
      <trkpt lat="44.47516" lon="1.52206">
        <ele>130.4</ele>
        <time>2023-05-11T13:41:34Z</time>
      </trkpt>
      <trkpt lat="44.47525" lon="1.52199">
        <ele>130.4</ele>
        <time>2023-05-11T13:41:43Z</time>
      </trkpt>
      <trkpt lat="44.47534" lon="1.52193">
        <ele>130.88</ele>
        <time>2023-05-11T13:41:51Z</time>
      </trkpt>
      <trkpt lat="44.47543" lon="1.52185">
        <ele>130.88</ele>
        <time>2023-05-11T13:42:00Z</time>
      </trkpt>
      <trkpt lat="44.47554" lon="1.52178">
        <ele>130.88</ele>
        <time>2023-05-11T13:42:09Z</time>
      </trkpt>
      <trkpt lat="44.47563" lon="1.52172">
        <ele>130.88</ele>
        <time>2023-05-11T13:42:17Z</time>
      </trkpt>
      <trkpt lat="44.47569" lon="1.52167">
        <ele>130.88</ele>
        <time>2023-05-11T13:42:40Z</time>
      </trkpt>
      <trkpt lat="44.47577" lon="1.52162">
        <ele>131.36</ele>
        <time>2023-05-11T13:44:10Z</time>
      </trkpt>
      <trkpt lat="44.47587" lon="1.52156">
        <ele>131.84</ele>
        <time>2023-05-11T13:44:22Z</time>
      </trkpt>
      <trkpt lat="44.47597" lon="1.52149">
        <ele>132.32</ele>
        <time>2023-05-11T13:44:32Z</time>
      </trkpt>
      <trkpt lat="44.47608" lon="1.52142">
        <ele>132.8</ele>
        <time>2023-05-11T13:44:41Z</time>
      </trkpt>
      <trkpt lat="44.47618" lon="1.52138">
        <ele>132.8</ele>
        <time>2023-05-11T13:44:50Z</time>
      </trkpt>
      <trkpt lat="44.4763" lon="1.52136">
        <ele>132.8</ele>
        <time>2023-05-11T13:44:59Z</time>
      </trkpt>
      <trkpt lat="44.47641" lon="1.52132">
        <ele>132.8</ele>
        <time>2023-05-11T13:45:08Z</time>
      </trkpt>
      <trkpt lat="44.47652" lon="1.52129">
        <ele>132.8</ele>
        <time>2023-05-11T13:45:17Z</time>
      </trkpt>
      <trkpt lat="44.47662" lon="1.52124">
        <ele>132.8</ele>
        <time>2023-05-11T13:45:26Z</time>
      </trkpt>
      <trkpt lat="44.47671" lon="1.52118">
        <ele>132.8</ele>
        <time>2023-05-11T13:45:34Z</time>
      </trkpt>
      <trkpt lat="44.47681" lon="1.52114">
        <ele>132.8</ele>
        <time>2023-05-11T13:45:42Z</time>
      </trkpt>
      <trkpt lat="44.47691" lon="1.52115">
        <ele>132.32</ele>
        <time>2023-05-11T13:45:50Z</time>
      </trkpt>
      <trkpt lat="44.47702" lon="1.52116">
        <ele>132.32</ele>
        <time>2023-05-11T13:45:59Z</time>
      </trkpt>
      <trkpt lat="44.47712" lon="1.52119">
        <ele>132.32</ele>
        <time>2023-05-11T13:46:08Z</time>
      </trkpt>
      <trkpt lat="44.47722" lon="1.5212">
        <ele>132.8</ele>
        <time>2023-05-11T13:46:16Z</time>
      </trkpt>
      <trkpt lat="44.47732" lon="1.52123">
        <ele>132.8</ele>
        <time>2023-05-11T13:46:24Z</time>
      </trkpt>
      <trkpt lat="44.47741" lon="1.52129">
        <ele>132.8</ele>
        <time>2023-05-11T13:46:32Z</time>
      </trkpt>
      <trkpt lat="44.47748" lon="1.52139">
        <ele>133.28</ele>
        <time>2023-05-11T13:46:41Z</time>
      </trkpt>
      <trkpt lat="44.47755" lon="1.52151">
        <ele>133.28</ele>
        <time>2023-05-11T13:46:50Z</time>
      </trkpt>
      <trkpt lat="44.47763" lon="1.52163">
        <ele>133.76</ele>
        <time>2023-05-11T13:46:59Z</time>
      </trkpt>
      <trkpt lat="44.47771" lon="1.52174">
        <ele>133.76</ele>
        <time>2023-05-11T13:47:08Z</time>
      </trkpt>
      <trkpt lat="44.47778" lon="1.52185">
        <ele>134.24</ele>
        <time>2023-05-11T13:47:17Z</time>
      </trkpt>
      <trkpt lat="44.47787" lon="1.52195">
        <ele>135.2</ele>
        <time>2023-05-11T13:47:27Z</time>
      </trkpt>
      <trkpt lat="44.47795" lon="1.52205">
        <ele>136.64</ele>
        <time>2023-05-11T13:47:38Z</time>
      </trkpt>
      <trkpt lat="44.47808" lon="1.52212">
        <ele>136.64</ele>
        <time>2023-05-11T13:47:49Z</time>
      </trkpt>
      <trkpt lat="44.4782" lon="1.52216">
        <ele>136.64</ele>
        <time>2023-05-11T13:48:00Z</time>
      </trkpt>
      <trkpt lat="44.47832" lon="1.52217">
        <ele>136.64</ele>
        <time>2023-05-11T13:48:09Z</time>
      </trkpt>
      <trkpt lat="44.47843" lon="1.5222">
        <ele>136.64</ele>
        <time>2023-05-11T13:48:19Z</time>
      </trkpt>
      <trkpt lat="44.47854" lon="1.5222">
        <ele>136.64</ele>
        <time>2023-05-11T13:48:28Z</time>
      </trkpt>
      <trkpt lat="44.47866" lon="1.52217">
        <ele>136.64</ele>
        <time>2023-05-11T13:48:37Z</time>
      </trkpt>
      <trkpt lat="44.47877" lon="1.52214">
        <ele>136.64</ele>
        <time>2023-05-11T13:48:45Z</time>
      </trkpt>
      <trkpt lat="44.47888" lon="1.5221">
        <ele>137.13</ele>
        <time>2023-05-11T13:48:53Z</time>
      </trkpt>
      <trkpt lat="44.47898" lon="1.52206">
        <ele>137.13</ele>
        <time>2023-05-11T13:49:01Z</time>
      </trkpt>
      <trkpt lat="44.4791" lon="1.52201">
        <ele>137.13</ele>
        <time>2023-05-11T13:49:10Z</time>
      </trkpt>
      <trkpt lat="44.47918" lon="1.52194">
        <ele>137.13</ele>
        <time>2023-05-11T13:49:18Z</time>
      </trkpt>
      <trkpt lat="44.47927" lon="1.52188">
        <ele>137.13</ele>
        <time>2023-05-11T13:49:26Z</time>
      </trkpt>
      <trkpt lat="44.47938" lon="1.5218">
        <ele>137.13</ele>
        <time>2023-05-11T13:49:35Z</time>
      </trkpt>
      <trkpt lat="44.47949" lon="1.52175">
        <ele>137.13</ele>
        <time>2023-05-11T13:49:43Z</time>
      </trkpt>
      <trkpt lat="44.47959" lon="1.52169">
        <ele>137.13</ele>
        <time>2023-05-11T13:49:52Z</time>
      </trkpt>
      <trkpt lat="44.47969" lon="1.52163">
        <ele>137.13</ele>
        <time>2023-05-11T13:50:00Z</time>
      </trkpt>
      <trkpt lat="44.47982" lon="1.52161">
        <ele>137.13</ele>
        <time>2023-05-11T13:50:10Z</time>
      </trkpt>
      <trkpt lat="44.47992" lon="1.52169">
        <ele>137.13</ele>
        <time>2023-05-11T13:50:19Z</time>
      </trkpt>
      <trkpt lat="44.47999" lon="1.5218">
        <ele>138.09</ele>
        <time>2023-05-11T13:50:29Z</time>
      </trkpt>
      <trkpt lat="44.48009" lon="1.52188">
        <ele>139.53</ele>
        <time>2023-05-11T13:50:40Z</time>
      </trkpt>
      <trkpt lat="44.48019" lon="1.5219">
        <ele>140.01</ele>
        <time>2023-05-11T13:50:49Z</time>
      </trkpt>
      <trkpt lat="44.48029" lon="1.52194">
        <ele>142.41</ele>
        <time>2023-05-11T13:51:00Z</time>
      </trkpt>
      <trkpt lat="44.4804" lon="1.52197">
        <ele>143.37</ele>
        <time>2023-05-11T13:51:12Z</time>
      </trkpt>
      <trkpt lat="44.4805" lon="1.52199">
        <ele>143.85</ele>
        <time>2023-05-11T13:51:23Z</time>
      </trkpt>
      <trkpt lat="44.4806" lon="1.52199">
        <ele>143.37</ele>
        <time>2023-05-11T13:51:32Z</time>
      </trkpt>
      <trkpt lat="44.4807" lon="1.52198">
        <ele>143.37</ele>
        <time>2023-05-11T13:51:40Z</time>
      </trkpt>
      <trkpt lat="44.48081" lon="1.52197">
        <ele>142.41</ele>
        <time>2023-05-11T13:51:49Z</time>
      </trkpt>
      <trkpt lat="44.48092" lon="1.52198">
        <ele>141.45</ele>
        <time>2023-05-11T13:51:59Z</time>
      </trkpt>
      <trkpt lat="44.48103" lon="1.52198">
        <ele>140.97</ele>
        <time>2023-05-11T13:52:08Z</time>
      </trkpt>
      <trkpt lat="44.48113" lon="1.5219">
        <ele>140.97</ele>
        <time>2023-05-11T13:52:18Z</time>
      </trkpt>
      <trkpt lat="44.48114" lon="1.52176">
        <ele>140.97</ele>
        <time>2023-05-11T13:52:28Z</time>
      </trkpt>
      <trkpt lat="44.48112" lon="1.52161">
        <ele>140.97</ele>
        <time>2023-05-11T13:52:37Z</time>
      </trkpt>
      <trkpt lat="44.48111" lon="1.52145">
        <ele>140.49</ele>
        <time>2023-05-11T13:52:46Z</time>
      </trkpt>
      <trkpt lat="44.48112" lon="1.5213">
        <ele>140.49</ele>
        <time>2023-05-11T13:52:55Z</time>
      </trkpt>
      <trkpt lat="44.48116" lon="1.52117">
        <ele>140.49</ele>
        <time>2023-05-11T13:53:03Z</time>
      </trkpt>
      <trkpt lat="44.48121" lon="1.52107">
        <ele>140.49</ele>
        <time>2023-05-11T13:54:01Z</time>
      </trkpt>
      <trkpt lat="44.48125" lon="1.5209">
        <ele>140.49</ele>
        <time>2023-05-11T13:54:09Z</time>
      </trkpt>
      <trkpt lat="44.48129" lon="1.52078">
        <ele>140.49</ele>
        <time>2023-05-11T13:54:15Z</time>
      </trkpt>
      <trkpt lat="44.48133" lon="1.52064">
        <ele>140.49</ele>
        <time>2023-05-11T13:54:22Z</time>
      </trkpt>
      <trkpt lat="44.48138" lon="1.52051">
        <ele>140.49</ele>
        <time>2023-05-11T13:54:30Z</time>
      </trkpt>
      <trkpt lat="44.48143" lon="1.52037">
        <ele>140.49</ele>
        <time>2023-05-11T13:54:38Z</time>
      </trkpt>
      <trkpt lat="44.48146" lon="1.52022">
        <ele>140.49</ele>
        <time>2023-05-11T13:54:46Z</time>
      </trkpt>
      <trkpt lat="44.4815" lon="1.52007">
        <ele>139.53</ele>
        <time>2023-05-11T13:54:55Z</time>
      </trkpt>
      <trkpt lat="44.48151" lon="1.51988">
        <ele>138.57</ele>
        <time>2023-05-11T13:56:22Z</time>
      </trkpt>
      <trkpt lat="44.48161" lon="1.51977">
        <ele>138.57</ele>
        <time>2023-05-11T13:56:32Z</time>
      </trkpt>
      <trkpt lat="44.48171" lon="1.51968">
        <ele>138.09</ele>
        <time>2023-05-11T13:56:41Z</time>
      </trkpt>
      <trkpt lat="44.48181" lon="1.51964">
        <ele>138.09</ele>
        <time>2023-05-11T13:56:51Z</time>
      </trkpt>
      <trkpt lat="44.48191" lon="1.51962">
        <ele>137.61</ele>
        <time>2023-05-11T13:57:00Z</time>
      </trkpt>
      <trkpt lat="44.48201" lon="1.51959">
        <ele>139.05</ele>
        <time>2023-05-11T13:57:12Z</time>
      </trkpt>
      <trkpt lat="44.48211" lon="1.51954">
        <ele>140.01</ele>
        <time>2023-05-11T13:57:21Z</time>
      </trkpt>
      <trkpt lat="44.48223" lon="1.51947">
        <ele>141.45</ele>
        <time>2023-05-11T13:57:32Z</time>
      </trkpt>
      <trkpt lat="44.48233" lon="1.51941">
        <ele>142.89</ele>
        <time>2023-05-11T13:57:48Z</time>
      </trkpt>
      <trkpt lat="44.48242" lon="1.51936">
        <ele>142.89</ele>
        <time>2023-05-11T13:57:58Z</time>
      </trkpt>
      <trkpt lat="44.48252" lon="1.51931">
        <ele>142.89</ele>
        <time>2023-05-11T13:58:09Z</time>
      </trkpt>
      <trkpt lat="44.48262" lon="1.51924">
        <ele>141.93</ele>
        <time>2023-05-11T13:58:19Z</time>
      </trkpt>
      <trkpt lat="44.48274" lon="1.51917">
        <ele>141.45</ele>
        <time>2023-05-11T13:58:30Z</time>
      </trkpt>
      <trkpt lat="44.48282" lon="1.51909">
        <ele>141.45</ele>
        <time>2023-05-11T13:58:40Z</time>
      </trkpt>
      <trkpt lat="44.4829" lon="1.51898">
        <ele>141.45</ele>
        <time>2023-05-11T13:58:51Z</time>
      </trkpt>
      <trkpt lat="44.48303" lon="1.51885">
        <ele>141.45</ele>
        <time>2023-05-11T13:59:02Z</time>
      </trkpt>
      <trkpt lat="44.48315" lon="1.51875">
        <ele>141.45</ele>
        <time>2023-05-11T13:59:13Z</time>
      </trkpt>
      <trkpt lat="44.48323" lon="1.51865">
        <ele>143.85</ele>
        <time>2023-05-11T13:59:23Z</time>
      </trkpt>
      <trkpt lat="44.48332" lon="1.51853">
        <ele>143.85</ele>
        <time>2023-05-11T13:59:33Z</time>
      </trkpt>
      <trkpt lat="44.4834" lon="1.51841">
        <ele>143.85</ele>
        <time>2023-05-11T13:59:42Z</time>
      </trkpt>
      <trkpt lat="44.48348" lon="1.51828">
        <ele>144.34</ele>
        <time>2023-05-11T13:59:51Z</time>
      </trkpt>
      <trkpt lat="44.48356" lon="1.51814">
        <ele>144.34</ele>
        <time>2023-05-11T14:00:00Z</time>
      </trkpt>
      <trkpt lat="44.48361" lon="1.51799">
        <ele>144.34</ele>
        <time>2023-05-11T14:00:09Z</time>
      </trkpt>
      <trkpt lat="44.48368" lon="1.51787">
        <ele>142.89</ele>
        <time>2023-05-11T14:00:18Z</time>
      </trkpt>
      <trkpt lat="44.48373" lon="1.51775">
        <ele>142.89</ele>
        <time>2023-05-11T14:00:27Z</time>
      </trkpt>
      <trkpt lat="44.48379" lon="1.51762">
        <ele>142.89</ele>
        <time>2023-05-11T14:00:37Z</time>
      </trkpt>
      <trkpt lat="44.48385" lon="1.51748">
        <ele>142.89</ele>
        <time>2023-05-11T14:00:48Z</time>
      </trkpt>
      <trkpt lat="44.4839" lon="1.5173">
        <ele>142.41</ele>
        <time>2023-05-11T14:00:58Z</time>
      </trkpt>
      <trkpt lat="44.48395" lon="1.51714">
        <ele>142.41</ele>
        <time>2023-05-11T14:01:08Z</time>
      </trkpt>
      <trkpt lat="44.484" lon="1.51699">
        <ele>142.41</ele>
        <time>2023-05-11T14:01:18Z</time>
      </trkpt>
      <trkpt lat="44.48404" lon="1.51681">
        <ele>143.37</ele>
        <time>2023-05-11T14:01:29Z</time>
      </trkpt>
      <trkpt lat="44.48411" lon="1.51663">
        <ele>143.37</ele>
        <time>2023-05-11T14:01:39Z</time>
      </trkpt>
      <trkpt lat="44.48417" lon="1.51644">
        <ele>143.37</ele>
        <time>2023-05-11T14:01:49Z</time>
      </trkpt>
      <trkpt lat="44.48418" lon="1.51629">
        <ele>143.37</ele>
        <time>2023-05-11T14:01:58Z</time>
      </trkpt>
      <trkpt lat="44.48413" lon="1.51616">
        <ele>143.85</ele>
        <time>2023-05-11T14:02:07Z</time>
      </trkpt>
      <trkpt lat="44.48406" lon="1.51606">
        <ele>143.37</ele>
        <time>2023-05-11T14:02:16Z</time>
      </trkpt>
      <trkpt lat="44.48401" lon="1.51593">
        <ele>143.37</ele>
        <time>2023-05-11T14:02:25Z</time>
      </trkpt>
      <trkpt lat="44.48399" lon="1.51577">
        <ele>143.37</ele>
        <time>2023-05-11T14:02:35Z</time>
      </trkpt>
      <trkpt lat="44.48408" lon="1.51566">
        <ele>143.37</ele>
        <time>2023-05-11T14:02:46Z</time>
      </trkpt>
      <trkpt lat="44.48421" lon="1.51563">
        <ele>143.37</ele>
        <time>2023-05-11T14:02:56Z</time>
      </trkpt>
      <trkpt lat="44.48432" lon="1.51563">
        <ele>143.37</ele>
        <time>2023-05-11T14:03:04Z</time>
      </trkpt>
      <trkpt lat="44.48443" lon="1.51559">
        <ele>143.85</ele>
        <time>2023-05-11T14:03:12Z</time>
      </trkpt>
      <trkpt lat="44.48453" lon="1.51553">
        <ele>144.34</ele>
        <time>2023-05-11T14:03:21Z</time>
      </trkpt>
      <trkpt lat="44.48463" lon="1.51546">
        <ele>144.34</ele>
        <time>2023-05-11T14:03:30Z</time>
      </trkpt>
      <trkpt lat="44.48471" lon="1.5154">
        <ele>144.34</ele>
        <time>2023-05-11T14:03:40Z</time>
      </trkpt>
      <trkpt lat="44.48481" lon="1.51532">
        <ele>144.82</ele>
        <time>2023-05-11T14:03:49Z</time>
      </trkpt>
      <trkpt lat="44.48492" lon="1.51526">
        <ele>145.78</ele>
        <time>2023-05-11T14:03:59Z</time>
      </trkpt>
      <trkpt lat="44.48502" lon="1.51519">
        <ele>146.74</ele>
        <time>2023-05-11T14:04:09Z</time>
      </trkpt>
      <trkpt lat="44.48513" lon="1.51514">
        <ele>146.74</ele>
        <time>2023-05-11T14:04:19Z</time>
      </trkpt>
      <trkpt lat="44.48524" lon="1.51507">
        <ele>145.3</ele>
        <time>2023-05-11T14:04:29Z</time>
      </trkpt>
      <trkpt lat="44.48534" lon="1.51499">
        <ele>145.3</ele>
        <time>2023-05-11T14:04:39Z</time>
      </trkpt>
      <trkpt lat="44.48549" lon="1.51492">
        <ele>145.3</ele>
        <time>2023-05-11T14:04:49Z</time>
      </trkpt>
      <trkpt lat="44.48561" lon="1.51483">
        <ele>146.26</ele>
        <time>2023-05-11T14:05:00Z</time>
      </trkpt>
      <trkpt lat="44.48573" lon="1.51477">
        <ele>146.26</ele>
        <time>2023-05-11T14:05:10Z</time>
      </trkpt>
      <trkpt lat="44.48584" lon="1.5147">
        <ele>146.74</ele>
        <time>2023-05-11T14:05:21Z</time>
      </trkpt>
      <trkpt lat="44.48595" lon="1.51462">
        <ele>146.74</ele>
        <time>2023-05-11T14:05:32Z</time>
      </trkpt>
      <trkpt lat="44.48605" lon="1.51451">
        <ele>146.74</ele>
        <time>2023-05-11T14:05:44Z</time>
      </trkpt>
      <trkpt lat="44.48617" lon="1.51438">
        <ele>147.22</ele>
        <time>2023-05-11T14:05:54Z</time>
      </trkpt>
      <trkpt lat="44.48628" lon="1.51425">
        <ele>148.18</ele>
        <time>2023-05-11T14:06:05Z</time>
      </trkpt>
      <trkpt lat="44.48639" lon="1.51416">
        <ele>148.18</ele>
        <time>2023-05-11T14:06:19Z</time>
      </trkpt>
      <trkpt lat="44.48652" lon="1.51405">
        <ele>147.7</ele>
        <time>2023-05-11T14:06:36Z</time>
      </trkpt>
      <trkpt lat="44.48646" lon="1.51408">
        <ele>147.7</ele>
        <time>2023-05-11T14:09:09Z</time>
      </trkpt>
      <trkpt lat="44.48646" lon="1.51427">
        <ele>148.66</ele>
        <time>2023-05-11T14:16:09Z</time>
      </trkpt>
      <trkpt lat="44.48647" lon="1.51447">
        <ele>149.62</ele>
        <time>2023-05-11T14:16:25Z</time>
      </trkpt>
      <trkpt lat="44.48655" lon="1.51459">
        <ele>150.1</ele>
        <time>2023-05-11T14:16:38Z</time>
      </trkpt>
      <trkpt lat="44.48669" lon="1.51454">
        <ele>152.03</ele>
        <time>2023-05-11T14:16:56Z</time>
      </trkpt>
      <trkpt lat="44.48681" lon="1.5145">
        <ele>156.83</ele>
        <time>2023-05-11T14:17:36Z</time>
      </trkpt>
      <trkpt lat="44.48693" lon="1.51462">
        <ele>161.64</ele>
        <time>2023-05-11T14:18:18Z</time>
      </trkpt>
      <trkpt lat="44.48706" lon="1.51463">
        <ele>168.37</ele>
        <time>2023-05-11T14:19:05Z</time>
      </trkpt>
      <trkpt lat="44.48712" lon="1.51468">
        <ele>172.21</ele>
        <time>2023-05-11T14:19:36Z</time>
      </trkpt>
      <trkpt lat="44.48716" lon="1.51456">
        <ele>172.69</ele>
        <time>2023-05-11T14:19:51Z</time>
      </trkpt>
      <trkpt lat="44.48726" lon="1.51464">
        <ele>175.58</ele>
        <time>2023-05-11T14:20:09Z</time>
      </trkpt>
      <trkpt lat="44.48735" lon="1.51471">
        <ele>178.46</ele>
        <time>2023-05-11T14:20:26Z</time>
      </trkpt>
      <trkpt lat="44.48744" lon="1.51474">
        <ele>181.35</ele>
        <time>2023-05-11T14:20:44Z</time>
      </trkpt>
      <trkpt lat="44.48752" lon="1.51477">
        <ele>183.27</ele>
        <time>2023-05-11T14:20:58Z</time>
      </trkpt>
      <trkpt lat="44.48761" lon="1.51481">
        <ele>186.15</ele>
        <time>2023-05-11T14:21:17Z</time>
      </trkpt>
      <trkpt lat="44.4877" lon="1.51487">
        <ele>189.04</ele>
        <time>2023-05-11T14:21:37Z</time>
      </trkpt>
      <trkpt lat="44.4878" lon="1.5149">
        <ele>190.96</ele>
        <time>2023-05-11T14:21:52Z</time>
      </trkpt>
      <trkpt lat="44.48789" lon="1.5149">
        <ele>192.88</ele>
        <time>2023-05-11T14:22:10Z</time>
      </trkpt>
      <trkpt lat="44.48798" lon="1.51496">
        <ele>195.77</ele>
        <time>2023-05-11T14:22:26Z</time>
      </trkpt>
      <trkpt lat="44.48806" lon="1.51503">
        <ele>198.17</ele>
        <time>2023-05-11T14:22:41Z</time>
      </trkpt>
      <trkpt lat="44.48814" lon="1.51512">
        <ele>200.57</ele>
        <time>2023-05-11T14:22:57Z</time>
      </trkpt>
      <trkpt lat="44.48823" lon="1.51515">
        <ele>202.01</ele>
        <time>2023-05-11T14:23:14Z</time>
      </trkpt>
      <trkpt lat="44.48832" lon="1.51514">
        <ele>204.42</ele>
        <time>2023-05-11T14:23:28Z</time>
      </trkpt>
      <trkpt lat="44.48842" lon="1.51516">
        <ele>205.86</ele>
        <time>2023-05-11T14:23:44Z</time>
      </trkpt>
      <trkpt lat="44.48851" lon="1.51515">
        <ele>207.78</ele>
        <time>2023-05-11T14:23:57Z</time>
      </trkpt>
      <trkpt lat="44.48861" lon="1.5151">
        <ele>210.67</ele>
        <time>2023-05-11T14:24:13Z</time>
      </trkpt>
      <trkpt lat="44.4887" lon="1.5151">
        <ele>212.59</ele>
        <time>2023-05-11T14:24:27Z</time>
      </trkpt>
      <trkpt lat="44.48879" lon="1.5152">
        <ele>214.99</ele>
        <time>2023-05-11T14:24:46Z</time>
      </trkpt>
      <trkpt lat="44.48886" lon="1.5153">
        <ele>216.43</ele>
        <time>2023-05-11T14:25:01Z</time>
      </trkpt>
      <trkpt lat="44.48894" lon="1.51529">
        <ele>218.36</ele>
        <time>2023-05-11T14:25:16Z</time>
      </trkpt>
      <trkpt lat="44.48902" lon="1.51528">
        <ele>220.76</ele>
        <time>2023-05-11T14:25:32Z</time>
      </trkpt>
      <trkpt lat="44.48916" lon="1.51534">
        <ele>222.68</ele>
        <time>2023-05-11T14:25:50Z</time>
      </trkpt>
      <trkpt lat="44.48928" lon="1.51542">
        <ele>223.64</ele>
        <time>2023-05-11T14:26:03Z</time>
      </trkpt>
      <trkpt lat="44.48938" lon="1.51549">
        <ele>224.61</ele>
        <time>2023-05-11T14:26:14Z</time>
      </trkpt>
      <trkpt lat="44.48946" lon="1.51553">
        <ele>226.05</ele>
        <time>2023-05-11T14:27:30Z</time>
      </trkpt>
      <trkpt lat="44.48954" lon="1.5156">
        <ele>226.05</ele>
        <time>2023-05-11T14:27:52Z</time>
      </trkpt>
      <trkpt lat="44.48962" lon="1.51569">
        <ele>226.53</ele>
        <time>2023-05-11T14:28:03Z</time>
      </trkpt>
      <trkpt lat="44.48969" lon="1.51581">
        <ele>227.01</ele>
        <time>2023-05-11T14:28:13Z</time>
      </trkpt>
      <trkpt lat="44.48975" lon="1.51591">
        <ele>227.01</ele>
        <time>2023-05-11T14:28:23Z</time>
      </trkpt>
      <trkpt lat="44.48984" lon="1.51598">
        <ele>227.97</ele>
        <time>2023-05-11T14:28:35Z</time>
      </trkpt>
      <trkpt lat="44.48992" lon="1.51608">
        <ele>227.97</ele>
        <time>2023-05-11T14:28:46Z</time>
      </trkpt>
      <trkpt lat="44.49001" lon="1.51617">
        <ele>228.93</ele>
        <time>2023-05-11T14:28:58Z</time>
      </trkpt>
      <trkpt lat="44.49011" lon="1.51623">
        <ele>229.41</ele>
        <time>2023-05-11T14:29:09Z</time>
      </trkpt>
      <trkpt lat="44.49016" lon="1.51637">
        <ele>229.41</ele>
        <time>2023-05-11T14:29:21Z</time>
      </trkpt>
      <trkpt lat="44.49016" lon="1.51652">
        <ele>230.37</ele>
        <time>2023-05-11T14:29:33Z</time>
      </trkpt>
      <trkpt lat="44.49021" lon="1.51667">
        <ele>230.85</ele>
        <time>2023-05-11T14:29:45Z</time>
      </trkpt>
      <trkpt lat="44.4903" lon="1.5168">
        <ele>230.85</ele>
        <time>2023-05-11T14:29:55Z</time>
      </trkpt>
      <trkpt lat="44.49035" lon="1.51694">
        <ele>231.33</ele>
        <time>2023-05-11T14:30:04Z</time>
      </trkpt>
      <trkpt lat="44.49043" lon="1.517">
        <ele>231.81</ele>
        <time>2023-05-11T14:30:15Z</time>
      </trkpt>
      <trkpt lat="44.49055" lon="1.517">
        <ele>232.3</ele>
        <time>2023-05-11T14:30:26Z</time>
      </trkpt>
      <trkpt lat="44.49066" lon="1.51705">
        <ele>232.78</ele>
        <time>2023-05-11T14:30:36Z</time>
      </trkpt>
      <trkpt lat="44.49075" lon="1.51702">
        <ele>233.74</ele>
        <time>2023-05-11T14:30:45Z</time>
      </trkpt>
      <trkpt lat="44.49086" lon="1.51704">
        <ele>234.7</ele>
        <time>2023-05-11T14:30:54Z</time>
      </trkpt>
      <trkpt lat="44.49096" lon="1.51712">
        <ele>236.14</ele>
        <time>2023-05-11T14:31:04Z</time>
      </trkpt>
      <trkpt lat="44.49107" lon="1.51714">
        <ele>236.62</ele>
        <time>2023-05-11T14:31:14Z</time>
      </trkpt>
      <trkpt lat="44.49117" lon="1.51706">
        <ele>237.1</ele>
        <time>2023-05-11T14:31:24Z</time>
      </trkpt>
      <trkpt lat="44.49126" lon="1.51698">
        <ele>237.1</ele>
        <time>2023-05-11T14:31:34Z</time>
      </trkpt>
      <trkpt lat="44.49137" lon="1.51692">
        <ele>237.1</ele>
        <time>2023-05-11T14:31:45Z</time>
      </trkpt>
      <trkpt lat="44.49149" lon="1.51694">
        <ele>237.58</ele>
        <time>2023-05-11T14:31:56Z</time>
      </trkpt>
      <trkpt lat="44.49161" lon="1.51698">
        <ele>238.54</ele>
        <time>2023-05-11T14:32:09Z</time>
      </trkpt>
      <trkpt lat="44.49174" lon="1.51708">
        <ele>240.47</ele>
        <time>2023-05-11T14:32:24Z</time>
      </trkpt>
      <trkpt lat="44.49187" lon="1.5171">
        <ele>241.91</ele>
        <time>2023-05-11T14:32:38Z</time>
      </trkpt>
      <trkpt lat="44.49197" lon="1.51717">
        <ele>242.87</ele>
        <time>2023-05-11T14:32:50Z</time>
      </trkpt>
      <trkpt lat="44.49206" lon="1.51727">
        <ele>244.31</ele>
        <time>2023-05-11T14:33:01Z</time>
      </trkpt>
      <trkpt lat="44.49219" lon="1.51738">
        <ele>246.72</ele>
        <time>2023-05-11T14:33:18Z</time>
      </trkpt>
      <trkpt lat="44.4923" lon="1.51749">
        <ele>248.64</ele>
        <time>2023-05-11T14:33:33Z</time>
      </trkpt>
      <trkpt lat="44.49227" lon="1.51768">
        <ele>250.56</ele>
        <time>2023-05-11T14:33:49Z</time>
      </trkpt>
      <trkpt lat="44.49225" lon="1.51784">
        <ele>252</ele>
        <time>2023-05-11T14:34:02Z</time>
      </trkpt>
      <trkpt lat="44.49229" lon="1.51799">
        <ele>253.93</ele>
        <time>2023-05-11T14:34:15Z</time>
      </trkpt>
      <trkpt lat="44.49235" lon="1.51809">
        <ele>255.37</ele>
        <time>2023-05-11T14:34:27Z</time>
      </trkpt>
      <trkpt lat="44.49247" lon="1.51813">
        <ele>257.29</ele>
        <time>2023-05-11T14:34:39Z</time>
      </trkpt>
      <trkpt lat="44.49252" lon="1.51825">
        <ele>257.77</ele>
        <time>2023-05-11T14:34:50Z</time>
      </trkpt>
      <trkpt lat="44.49252" lon="1.5184">
        <ele>259.21</ele>
        <time>2023-05-11T14:35:02Z</time>
      </trkpt>
      <trkpt lat="44.49251" lon="1.51855">
        <ele>260.65</ele>
        <time>2023-05-11T14:35:14Z</time>
      </trkpt>
      <trkpt lat="44.49251" lon="1.5187">
        <ele>261.62</ele>
        <time>2023-05-11T14:35:25Z</time>
      </trkpt>
      <trkpt lat="44.49256" lon="1.51882">
        <ele>263.06</ele>
        <time>2023-05-11T14:35:36Z</time>
      </trkpt>
      <trkpt lat="44.49262" lon="1.51894">
        <ele>264.5</ele>
        <time>2023-05-11T14:35:47Z</time>
      </trkpt>
      <trkpt lat="44.49268" lon="1.51908">
        <ele>265.46</ele>
        <time>2023-05-11T14:36:00Z</time>
      </trkpt>
      <trkpt lat="44.49274" lon="1.51922">
        <ele>266.9</ele>
        <time>2023-05-11T14:36:13Z</time>
      </trkpt>
      <trkpt lat="44.49281" lon="1.51935">
        <ele>268.83</ele>
        <time>2023-05-11T14:36:26Z</time>
      </trkpt>
      <trkpt lat="44.49287" lon="1.51948">
        <ele>269.79</ele>
        <time>2023-05-11T14:36:38Z</time>
      </trkpt>
      <trkpt lat="44.49292" lon="1.5196">
        <ele>270.75</ele>
        <time>2023-05-11T14:36:50Z</time>
      </trkpt>
      <trkpt lat="44.49295" lon="1.51975">
        <ele>272.19</ele>
        <time>2023-05-11T14:37:03Z</time>
      </trkpt>
      <trkpt lat="44.49292" lon="1.51992">
        <ele>273.15</ele>
        <time>2023-05-11T14:37:16Z</time>
      </trkpt>
      <trkpt lat="44.49297" lon="1.52005">
        <ele>273.63</ele>
        <time>2023-05-11T14:37:26Z</time>
      </trkpt>
      <trkpt lat="44.49302" lon="1.5202">
        <ele>274.59</ele>
        <time>2023-05-11T14:37:37Z</time>
      </trkpt>
      <trkpt lat="44.49305" lon="1.52037">
        <ele>275.56</ele>
        <time>2023-05-11T14:37:48Z</time>
      </trkpt>
      <trkpt lat="44.49309" lon="1.52053">
        <ele>276.52</ele>
        <time>2023-05-11T14:37:59Z</time>
      </trkpt>
      <trkpt lat="44.49314" lon="1.52066">
        <ele>277</ele>
        <time>2023-05-11T14:38:08Z</time>
      </trkpt>
      <trkpt lat="44.49318" lon="1.52082">
        <ele>277.48</ele>
        <time>2023-05-11T14:38:19Z</time>
      </trkpt>
      <trkpt lat="44.49323" lon="1.52096">
        <ele>277.96</ele>
        <time>2023-05-11T14:38:29Z</time>
      </trkpt>
      <trkpt lat="44.49327" lon="1.52112">
        <ele>278.92</ele>
        <time>2023-05-11T14:38:41Z</time>
      </trkpt>
      <trkpt lat="44.49332" lon="1.52125">
        <ele>279.88</ele>
        <time>2023-05-11T14:38:54Z</time>
      </trkpt>
      <trkpt lat="44.49336" lon="1.5214">
        <ele>280.84</ele>
        <time>2023-05-11T14:39:06Z</time>
      </trkpt>
      <trkpt lat="44.49343" lon="1.52155">
        <ele>281.8</ele>
        <time>2023-05-11T14:39:19Z</time>
      </trkpt>
      <trkpt lat="44.49347" lon="1.52171">
        <ele>283.25</ele>
        <time>2023-05-11T14:39:32Z</time>
      </trkpt>
      <trkpt lat="44.49351" lon="1.52186">
        <ele>284.69</ele>
        <time>2023-05-11T14:39:45Z</time>
      </trkpt>
      <trkpt lat="44.49357" lon="1.52201">
        <ele>286.61</ele>
        <time>2023-05-11T14:39:59Z</time>
      </trkpt>
      <trkpt lat="44.49362" lon="1.52215">
        <ele>289.01</ele>
        <time>2023-05-11T14:40:14Z</time>
      </trkpt>
      <trkpt lat="44.49367" lon="1.52231">
        <ele>289.97</ele>
        <time>2023-05-11T14:40:28Z</time>
      </trkpt>
      <trkpt lat="44.49371" lon="1.52245">
        <ele>291.9</ele>
        <time>2023-05-11T14:40:42Z</time>
      </trkpt>
      <trkpt lat="44.49375" lon="1.52261">
        <ele>293.82</ele>
        <time>2023-05-11T14:40:56Z</time>
      </trkpt>
      <trkpt lat="44.49377" lon="1.52276">
        <ele>295.26</ele>
        <time>2023-05-11T14:41:09Z</time>
      </trkpt>
      <trkpt lat="44.49379" lon="1.52289">
        <ele>296.22</ele>
        <time>2023-05-11T14:41:21Z</time>
      </trkpt>
      <trkpt lat="44.49382" lon="1.52303">
        <ele>297.67</ele>
        <time>2023-05-11T14:41:33Z</time>
      </trkpt>
      <trkpt lat="44.49384" lon="1.52318">
        <ele>298.15</ele>
        <time>2023-05-11T14:41:45Z</time>
      </trkpt>
      <trkpt lat="44.49386" lon="1.52333">
        <ele>299.11</ele>
        <time>2023-05-11T14:41:55Z</time>
      </trkpt>
      <trkpt lat="44.49387" lon="1.52346">
        <ele>300.07</ele>
        <time>2023-05-11T14:42:05Z</time>
      </trkpt>
      <trkpt lat="44.49388" lon="1.5236">
        <ele>300.55</ele>
        <time>2023-05-11T14:42:16Z</time>
      </trkpt>
      <trkpt lat="44.49386" lon="1.52377">
        <ele>301.03</ele>
        <time>2023-05-11T14:42:29Z</time>
      </trkpt>
      <trkpt lat="44.49383" lon="1.52394">
        <ele>301.99</ele>
        <time>2023-05-11T14:42:42Z</time>
      </trkpt>
      <trkpt lat="44.49383" lon="1.52411">
        <ele>302.95</ele>
        <time>2023-05-11T14:42:53Z</time>
      </trkpt>
      <trkpt lat="44.49381" lon="1.52427">
        <ele>302.95</ele>
        <time>2023-05-11T14:43:05Z</time>
      </trkpt>
      <trkpt lat="44.49379" lon="1.52444">
        <ele>303.43</ele>
        <time>2023-05-11T14:43:25Z</time>
      </trkpt>
      <trkpt lat="44.49379" lon="1.52444">
        <ele>303.91</ele>
        <time>2023-05-11T14:43:47Z</time>
      </trkpt>
      <trkpt lat="44.49374" lon="1.52444">
        <ele>304.88</ele>
        <time>2023-05-11T14:48:48Z</time>
      </trkpt>
      <trkpt lat="44.49369" lon="1.52461">
        <ele>307.28</ele>
        <time>2023-05-11T14:49:01Z</time>
      </trkpt>
      <trkpt lat="44.49361" lon="1.52474">
        <ele>308.72</ele>
        <time>2023-05-11T14:49:12Z</time>
      </trkpt>
      <trkpt lat="44.49351" lon="1.52483">
        <ele>310.16</ele>
        <time>2023-05-11T14:49:24Z</time>
      </trkpt>
      <trkpt lat="44.49341" lon="1.5249">
        <ele>311.6</ele>
        <time>2023-05-11T14:49:35Z</time>
      </trkpt>
      <trkpt lat="44.49329" lon="1.52497">
        <ele>313.05</ele>
        <time>2023-05-11T14:49:46Z</time>
      </trkpt>
      <trkpt lat="44.49317" lon="1.52506">
        <ele>314.01</ele>
        <time>2023-05-11T14:49:54Z</time>
      </trkpt>
      <trkpt lat="44.49304" lon="1.52521">
        <ele>314.97</ele>
        <time>2023-05-11T14:50:03Z</time>
      </trkpt>
      <trkpt lat="44.49292" lon="1.52531">
        <ele>314.97</ele>
        <time>2023-05-11T14:50:12Z</time>
      </trkpt>
      <trkpt lat="44.49282" lon="1.5254">
        <ele>314.97</ele>
        <time>2023-05-11T14:50:21Z</time>
      </trkpt>
      <trkpt lat="44.49272" lon="1.52549">
        <ele>315.45</ele>
        <time>2023-05-11T14:50:30Z</time>
      </trkpt>
      <trkpt lat="44.49262" lon="1.5256">
        <ele>315.45</ele>
        <time>2023-05-11T14:50:40Z</time>
      </trkpt>
      <trkpt lat="44.49254" lon="1.52572">
        <ele>315.45</ele>
        <time>2023-05-11T14:50:47Z</time>
      </trkpt>
      <trkpt lat="44.49249" lon="1.52586">
        <ele>315.45</ele>
        <time>2023-05-11T14:50:55Z</time>
      </trkpt>
      <trkpt lat="44.49243" lon="1.52599">
        <ele>314.49</ele>
        <time>2023-05-11T14:51:04Z</time>
      </trkpt>
      <trkpt lat="44.49234" lon="1.52616">
        <ele>313.53</ele>
        <time>2023-05-11T14:51:16Z</time>
      </trkpt>
      <trkpt lat="44.49225" lon="1.52629">
        <ele>313.53</ele>
        <time>2023-05-11T14:51:25Z</time>
      </trkpt>
      <trkpt lat="44.49216" lon="1.52641">
        <ele>313.53</ele>
        <time>2023-05-11T14:51:33Z</time>
      </trkpt>
      <trkpt lat="44.49205" lon="1.52651">
        <ele>313.53</ele>
        <time>2023-05-11T14:51:43Z</time>
      </trkpt>
      <trkpt lat="44.49196" lon="1.52659">
        <ele>313.53</ele>
        <time>2023-05-11T14:51:52Z</time>
      </trkpt>
      <trkpt lat="44.49186" lon="1.52669">
        <ele>313.53</ele>
        <time>2023-05-11T14:52:01Z</time>
      </trkpt>
      <trkpt lat="44.49175" lon="1.5268">
        <ele>313.53</ele>
        <time>2023-05-11T14:52:09Z</time>
      </trkpt>
      <trkpt lat="44.49165" lon="1.52691">
        <ele>313.53</ele>
        <time>2023-05-11T14:52:18Z</time>
      </trkpt>
      <trkpt lat="44.49157" lon="1.52702">
        <ele>313.53</ele>
        <time>2023-05-11T14:52:26Z</time>
      </trkpt>
      <trkpt lat="44.49148" lon="1.52713">
        <ele>313.53</ele>
        <time>2023-05-11T14:52:35Z</time>
      </trkpt>
      <trkpt lat="44.49139" lon="1.52724">
        <ele>313.53</ele>
        <time>2023-05-11T14:52:44Z</time>
      </trkpt>
      <trkpt lat="44.49131" lon="1.52736">
        <ele>313.53</ele>
        <time>2023-05-11T14:52:53Z</time>
      </trkpt>
      <trkpt lat="44.49126" lon="1.52752">
        <ele>313.53</ele>
        <time>2023-05-11T14:53:02Z</time>
      </trkpt>
      <trkpt lat="44.49118" lon="1.52765">
        <ele>314.01</ele>
        <time>2023-05-11T14:53:10Z</time>
      </trkpt>
      <trkpt lat="44.49111" lon="1.52779">
        <ele>314.01</ele>
        <time>2023-05-11T14:53:18Z</time>
      </trkpt>
      <trkpt lat="44.49107" lon="1.52793">
        <ele>314.01</ele>
        <time>2023-05-11T14:53:27Z</time>
      </trkpt>
      <trkpt lat="44.49105" lon="1.52808">
        <ele>313.53</ele>
        <time>2023-05-11T14:53:35Z</time>
      </trkpt>
      <trkpt lat="44.49101" lon="1.52823">
        <ele>313.53</ele>
        <time>2023-05-11T14:53:43Z</time>
      </trkpt>
      <trkpt lat="44.49096" lon="1.52836">
        <ele>313.05</ele>
        <time>2023-05-11T14:53:51Z</time>
      </trkpt>
      <trkpt lat="44.49091" lon="1.5285">
        <ele>312.57</ele>
        <time>2023-05-11T14:54:00Z</time>
      </trkpt>
      <trkpt lat="44.49083" lon="1.52865">
        <ele>311.12</ele>
        <time>2023-05-11T14:54:10Z</time>
      </trkpt>
      <trkpt lat="44.49074" lon="1.52876">
        <ele>310.16</ele>
        <time>2023-05-11T14:54:18Z</time>
      </trkpt>
      <trkpt lat="44.49066" lon="1.52886">
        <ele>309.68</ele>
        <time>2023-05-11T14:54:27Z</time>
      </trkpt>
      <trkpt lat="44.49057" lon="1.52896">
        <ele>307.76</ele>
        <time>2023-05-11T14:54:36Z</time>
      </trkpt>
      <trkpt lat="44.49048" lon="1.52906">
        <ele>306.8</ele>
        <time>2023-05-11T14:54:45Z</time>
      </trkpt>
      <trkpt lat="44.49042" lon="1.52916">
        <ele>306.32</ele>
        <time>2023-05-11T14:54:53Z</time>
      </trkpt>
      <trkpt lat="44.49033" lon="1.52931">
        <ele>305.36</ele>
        <time>2023-05-11T14:55:03Z</time>
      </trkpt>
      <trkpt lat="44.49026" lon="1.52943">
        <ele>304.39</ele>
        <time>2023-05-11T14:55:11Z</time>
      </trkpt>
      <trkpt lat="44.49019" lon="1.52954">
        <ele>303.43</ele>
        <time>2023-05-11T14:55:20Z</time>
      </trkpt>
      <trkpt lat="44.4901" lon="1.5297">
        <ele>301.99</ele>
        <time>2023-05-11T14:55:30Z</time>
      </trkpt>
      <trkpt lat="44.49004" lon="1.52982">
        <ele>301.51</ele>
        <time>2023-05-11T14:55:37Z</time>
      </trkpt>
      <trkpt lat="44.48997" lon="1.52996">
        <ele>301.51</ele>
        <time>2023-05-11T14:55:47Z</time>
      </trkpt>
      <trkpt lat="44.48989" lon="1.53008">
        <ele>301.51</ele>
        <time>2023-05-11T14:55:55Z</time>
      </trkpt>
      <trkpt lat="44.48981" lon="1.53021">
        <ele>301.03</ele>
        <time>2023-05-11T14:56:04Z</time>
      </trkpt>
      <trkpt lat="44.48973" lon="1.53034">
        <ele>301.03</ele>
        <time>2023-05-11T14:56:13Z</time>
      </trkpt>
      <trkpt lat="44.48966" lon="1.53046">
        <ele>301.03</ele>
        <time>2023-05-11T14:56:21Z</time>
      </trkpt>
      <trkpt lat="44.48958" lon="1.53059">
        <ele>300.55</ele>
        <time>2023-05-11T14:56:30Z</time>
      </trkpt>
      <trkpt lat="44.48949" lon="1.53071">
        <ele>300.07</ele>
        <time>2023-05-11T14:56:39Z</time>
      </trkpt>
      <trkpt lat="44.48941" lon="1.53084">
        <ele>299.59</ele>
        <time>2023-05-11T14:56:49Z</time>
      </trkpt>
      <trkpt lat="44.48935" lon="1.53096">
        <ele>297.67</ele>
        <time>2023-05-11T14:57:00Z</time>
      </trkpt>
      <trkpt lat="44.48933" lon="1.5311">
        <ele>296.22</ele>
        <time>2023-05-11T14:57:16Z</time>
      </trkpt>
      <trkpt lat="44.48932" lon="1.53125">
        <ele>295.74</ele>
        <time>2023-05-11T14:57:26Z</time>
      </trkpt>
      <trkpt lat="44.48927" lon="1.5314">
        <ele>294.3</ele>
        <time>2023-05-11T14:57:36Z</time>
      </trkpt>
      <trkpt lat="44.4892" lon="1.53153">
        <ele>293.34</ele>
        <time>2023-05-11T14:57:45Z</time>
      </trkpt>
      <trkpt lat="44.48915" lon="1.53166">
        <ele>291.42</ele>
        <time>2023-05-11T14:57:54Z</time>
      </trkpt>
      <trkpt lat="44.4891" lon="1.5318">
        <ele>290.46</ele>
        <time>2023-05-11T14:58:03Z</time>
      </trkpt>
      <trkpt lat="44.48905" lon="1.53195">
        <ele>288.53</ele>
        <time>2023-05-11T14:58:12Z</time>
      </trkpt>
      <trkpt lat="44.48899" lon="1.53209">
        <ele>287.09</ele>
        <time>2023-05-11T14:58:22Z</time>
      </trkpt>
      <trkpt lat="44.48893" lon="1.53223">
        <ele>286.61</ele>
        <time>2023-05-11T14:58:30Z</time>
      </trkpt>
      <trkpt lat="44.48884" lon="1.53234">
        <ele>285.65</ele>
        <time>2023-05-11T14:58:40Z</time>
      </trkpt>
      <trkpt lat="44.48876" lon="1.53241">
        <ele>284.69</ele>
        <time>2023-05-11T14:58:49Z</time>
      </trkpt>
      <trkpt lat="44.48867" lon="1.53249">
        <ele>283.73</ele>
        <time>2023-05-11T14:58:58Z</time>
      </trkpt>
      <trkpt lat="44.48858" lon="1.5326">
        <ele>283.73</ele>
        <time>2023-05-11T14:59:08Z</time>
      </trkpt>
      <trkpt lat="44.4885" lon="1.53272">
        <ele>282.77</ele>
        <time>2023-05-11T14:59:34Z</time>
      </trkpt>
      <trkpt lat="44.48839" lon="1.53282">
        <ele>282.77</ele>
        <time>2023-05-11T15:01:51Z</time>
      </trkpt>
      <trkpt lat="44.48831" lon="1.53289">
        <ele>282.28</ele>
        <time>2023-05-11T15:02:00Z</time>
      </trkpt>
      <trkpt lat="44.48823" lon="1.53298">
        <ele>281.32</ele>
        <time>2023-05-11T15:02:10Z</time>
      </trkpt>
      <trkpt lat="44.48813" lon="1.53307">
        <ele>280.84</ele>
        <time>2023-05-11T15:02:20Z</time>
      </trkpt>
      <trkpt lat="44.48803" lon="1.53318">
        <ele>280.36</ele>
        <time>2023-05-11T15:02:30Z</time>
      </trkpt>
      <trkpt lat="44.48794" lon="1.5333">
        <ele>280.36</ele>
        <time>2023-05-11T15:02:40Z</time>
      </trkpt>
      <trkpt lat="44.48785" lon="1.53342">
        <ele>279.88</ele>
        <time>2023-05-11T15:02:49Z</time>
      </trkpt>
      <trkpt lat="44.48777" lon="1.53349">
        <ele>278.92</ele>
        <time>2023-05-11T15:02:59Z</time>
      </trkpt>
      <trkpt lat="44.48779" lon="1.53343">
        <ele>279.4</ele>
        <time>2023-05-11T15:05:42Z</time>
      </trkpt>
      <trkpt lat="44.48787" lon="1.53334">
        <ele>279.4</ele>
        <time>2023-05-11T15:05:52Z</time>
      </trkpt>
      <trkpt lat="44.48795" lon="1.53323">
        <ele>280.84</ele>
        <time>2023-05-11T15:06:01Z</time>
      </trkpt>
      <trkpt lat="44.48803" lon="1.53314">
        <ele>280.84</ele>
        <time>2023-05-11T15:06:11Z</time>
      </trkpt>
      <trkpt lat="44.48812" lon="1.53303">
        <ele>281.8</ele>
        <time>2023-05-11T15:06:20Z</time>
      </trkpt>
      <trkpt lat="44.48821" lon="1.53294">
        <ele>282.28</ele>
        <time>2023-05-11T15:06:30Z</time>
      </trkpt>
      <trkpt lat="44.48831" lon="1.53285">
        <ele>282.77</ele>
        <time>2023-05-11T15:06:45Z</time>
      </trkpt>
      <trkpt lat="44.48839" lon="1.53277">
        <ele>283.25</ele>
        <time>2023-05-11T15:06:56Z</time>
      </trkpt>
      <trkpt lat="44.48847" lon="1.53266">
        <ele>284.21</ele>
        <time>2023-05-11T15:07:08Z</time>
      </trkpt>
      <trkpt lat="44.48856" lon="1.53258">
        <ele>284.69</ele>
        <time>2023-05-11T15:07:19Z</time>
      </trkpt>
      <trkpt lat="44.48866" lon="1.53248">
        <ele>285.65</ele>
        <time>2023-05-11T15:07:30Z</time>
      </trkpt>
      <trkpt lat="44.48875" lon="1.53239">
        <ele>286.13</ele>
        <time>2023-05-11T15:07:40Z</time>
      </trkpt>
      <trkpt lat="44.48884" lon="1.5323">
        <ele>287.09</ele>
        <time>2023-05-11T15:07:50Z</time>
      </trkpt>
      <trkpt lat="44.48893" lon="1.53225">
        <ele>287.57</ele>
        <time>2023-05-11T15:08:00Z</time>
      </trkpt>
      <trkpt lat="44.48903" lon="1.53229">
        <ele>287.57</ele>
        <time>2023-05-11T15:08:09Z</time>
      </trkpt>
      <trkpt lat="44.48912" lon="1.53234">
        <ele>286.61</ele>
        <time>2023-05-11T15:08:17Z</time>
      </trkpt>
      <trkpt lat="44.48921" lon="1.5324">
        <ele>285.65</ele>
        <time>2023-05-11T15:08:26Z</time>
      </trkpt>
      <trkpt lat="44.48932" lon="1.53246">
        <ele>284.21</ele>
        <time>2023-05-11T15:08:36Z</time>
      </trkpt>
      <trkpt lat="44.48947" lon="1.53253">
        <ele>284.21</ele>
        <time>2023-05-11T15:08:48Z</time>
      </trkpt>
      <trkpt lat="44.48959" lon="1.53259">
        <ele>283.25</ele>
        <time>2023-05-11T15:08:58Z</time>
      </trkpt>
      <trkpt lat="44.48968" lon="1.53266">
        <ele>283.25</ele>
        <time>2023-05-11T15:09:06Z</time>
      </trkpt>
      <trkpt lat="44.48977" lon="1.53275">
        <ele>282.77</ele>
        <time>2023-05-11T15:09:15Z</time>
      </trkpt>
      <trkpt lat="44.48987" lon="1.53287">
        <ele>282.28</ele>
        <time>2023-05-11T15:09:25Z</time>
      </trkpt>
      <trkpt lat="44.48993" lon="1.533">
        <ele>281.8</ele>
        <time>2023-05-11T15:09:34Z</time>
      </trkpt>
      <trkpt lat="44.48998" lon="1.53314">
        <ele>280.84</ele>
        <time>2023-05-11T15:09:42Z</time>
      </trkpt>
      <trkpt lat="44.49001" lon="1.53329">
        <ele>280.36</ele>
        <time>2023-05-11T15:09:51Z</time>
      </trkpt>
      <trkpt lat="44.49005" lon="1.53345">
        <ele>280.36</ele>
        <time>2023-05-11T15:10:00Z</time>
      </trkpt>
      <trkpt lat="44.49007" lon="1.5336">
        <ele>280.36</ele>
        <time>2023-05-11T15:10:10Z</time>
      </trkpt>
      <trkpt lat="44.4901" lon="1.53377">
        <ele>280.36</ele>
        <time>2023-05-11T15:10:21Z</time>
      </trkpt>
      <trkpt lat="44.49012" lon="1.53393">
        <ele>280.36</ele>
        <time>2023-05-11T15:10:31Z</time>
      </trkpt>
      <trkpt lat="44.49015" lon="1.53409">
        <ele>279.4</ele>
        <time>2023-05-11T15:10:53Z</time>
      </trkpt>
      <trkpt lat="44.49017" lon="1.53424">
        <ele>279.4</ele>
        <time>2023-05-11T15:11:02Z</time>
      </trkpt>
      <trkpt lat="44.49019" lon="1.53441">
        <ele>279.4</ele>
        <time>2023-05-11T15:11:11Z</time>
      </trkpt>
      <trkpt lat="44.49021" lon="1.53456">
        <ele>278.44</ele>
        <time>2023-05-11T15:11:20Z</time>
      </trkpt>
      <trkpt lat="44.49023" lon="1.53474">
        <ele>277.48</ele>
        <time>2023-05-11T15:11:29Z</time>
      </trkpt>
      <trkpt lat="44.49024" lon="1.5349">
        <ele>276.52</ele>
        <time>2023-05-11T15:11:37Z</time>
      </trkpt>
      <trkpt lat="44.49024" lon="1.53506">
        <ele>275.56</ele>
        <time>2023-05-11T15:11:46Z</time>
      </trkpt>
      <trkpt lat="44.49025" lon="1.5352">
        <ele>274.59</ele>
        <time>2023-05-11T15:11:54Z</time>
      </trkpt>
      <trkpt lat="44.49024" lon="1.53535">
        <ele>273.63</ele>
        <time>2023-05-11T15:12:03Z</time>
      </trkpt>
      <trkpt lat="44.49025" lon="1.5355">
        <ele>273.15</ele>
        <time>2023-05-11T15:12:11Z</time>
      </trkpt>
      <trkpt lat="44.49024" lon="1.53566">
        <ele>272.67</ele>
        <time>2023-05-11T15:12:19Z</time>
      </trkpt>
      <trkpt lat="44.49023" lon="1.5358">
        <ele>272.67</ele>
        <time>2023-05-11T15:12:27Z</time>
      </trkpt>
      <trkpt lat="44.49022" lon="1.53597">
        <ele>272.19</ele>
        <time>2023-05-11T15:12:36Z</time>
      </trkpt>
      <trkpt lat="44.49022" lon="1.53612">
        <ele>271.71</ele>
        <time>2023-05-11T15:12:44Z</time>
      </trkpt>
      <trkpt lat="44.49022" lon="1.53627">
        <ele>271.71</ele>
        <time>2023-05-11T15:12:52Z</time>
      </trkpt>
      <trkpt lat="44.49023" lon="1.53641">
        <ele>271.71</ele>
        <time>2023-05-11T15:13:00Z</time>
      </trkpt>
      <trkpt lat="44.49025" lon="1.53655">
        <ele>271.71</ele>
        <time>2023-05-11T15:13:08Z</time>
      </trkpt>
      <trkpt lat="44.49028" lon="1.53669">
        <ele>271.71</ele>
        <time>2023-05-11T15:13:16Z</time>
      </trkpt>
      <trkpt lat="44.49031" lon="1.53684">
        <ele>271.71</ele>
        <time>2023-05-11T15:13:25Z</time>
      </trkpt>
      <trkpt lat="44.49035" lon="1.53698">
        <ele>272.19</ele>
        <time>2023-05-11T15:13:33Z</time>
      </trkpt>
      <trkpt lat="44.49038" lon="1.53711">
        <ele>272.19</ele>
        <time>2023-05-11T15:13:41Z</time>
      </trkpt>
      <trkpt lat="44.4904" lon="1.53726">
        <ele>272.19</ele>
        <time>2023-05-11T15:13:50Z</time>
      </trkpt>
      <trkpt lat="44.49042" lon="1.5374">
        <ele>272.19</ele>
        <time>2023-05-11T15:13:58Z</time>
      </trkpt>
      <trkpt lat="44.49042" lon="1.53754">
        <ele>273.15</ele>
        <time>2023-05-11T15:14:07Z</time>
      </trkpt>
      <trkpt lat="44.49042" lon="1.53767">
        <ele>273.15</ele>
        <time>2023-05-11T15:14:15Z</time>
      </trkpt>
      <trkpt lat="44.49042" lon="1.5378">
        <ele>273.15</ele>
        <time>2023-05-11T15:14:23Z</time>
      </trkpt>
      <trkpt lat="44.49037" lon="1.53791">
        <ele>273.15</ele>
        <time>2023-05-11T15:14:31Z</time>
      </trkpt>
      <trkpt lat="44.49034" lon="1.53803">
        <ele>273.15</ele>
        <time>2023-05-11T15:14:40Z</time>
      </trkpt>
      <trkpt lat="44.49034" lon="1.53813">
        <ele>273.15</ele>
        <time>2023-05-11T15:14:51Z</time>
      </trkpt>
      <trkpt lat="44.49034" lon="1.53818">
        <ele>273.15</ele>
        <time>2023-05-11T15:16:24Z</time>
      </trkpt>
      <trkpt lat="44.49034" lon="1.53832">
        <ele>272.19</ele>
        <time>2023-05-11T15:16:37Z</time>
      </trkpt>
      <trkpt lat="44.49033" lon="1.5385">
        <ele>271.23</ele>
        <time>2023-05-11T15:16:47Z</time>
      </trkpt>
      <trkpt lat="44.49033" lon="1.53866">
        <ele>270.27</ele>
        <time>2023-05-11T15:16:55Z</time>
      </trkpt>
      <trkpt lat="44.49033" lon="1.5388">
        <ele>268.35</ele>
        <time>2023-05-11T15:17:03Z</time>
      </trkpt>
      <trkpt lat="44.49033" lon="1.53895">
        <ele>266.9</ele>
        <time>2023-05-11T15:17:11Z</time>
      </trkpt>
      <trkpt lat="44.49031" lon="1.53912">
        <ele>265.46</ele>
        <time>2023-05-11T15:17:21Z</time>
      </trkpt>
      <trkpt lat="44.49029" lon="1.53929">
        <ele>263.54</ele>
        <time>2023-05-11T15:17:32Z</time>
      </trkpt>
      <trkpt lat="44.49026" lon="1.53945">
        <ele>263.06</ele>
        <time>2023-05-11T15:17:41Z</time>
      </trkpt>
      <trkpt lat="44.49024" lon="1.5396">
        <ele>262.58</ele>
        <time>2023-05-11T15:17:51Z</time>
      </trkpt>
      <trkpt lat="44.49022" lon="1.53977">
        <ele>261.62</ele>
        <time>2023-05-11T15:18:02Z</time>
      </trkpt>
      <trkpt lat="44.49021" lon="1.53996">
        <ele>260.65</ele>
        <time>2023-05-11T15:18:11Z</time>
      </trkpt>
      <trkpt lat="44.49021" lon="1.54014">
        <ele>259.69</ele>
        <time>2023-05-11T15:18:20Z</time>
      </trkpt>
      <trkpt lat="44.49022" lon="1.54028">
        <ele>258.25</ele>
        <time>2023-05-11T15:18:29Z</time>
      </trkpt>
      <trkpt lat="44.49027" lon="1.54042">
        <ele>257.29</ele>
        <time>2023-05-11T15:18:38Z</time>
      </trkpt>
      <trkpt lat="44.49032" lon="1.54059">
        <ele>256.81</ele>
        <time>2023-05-11T15:18:48Z</time>
      </trkpt>
      <trkpt lat="44.49035" lon="1.54078">
        <ele>256.33</ele>
        <time>2023-05-11T15:18:57Z</time>
      </trkpt>
      <trkpt lat="44.49037" lon="1.54094">
        <ele>256.33</ele>
        <time>2023-05-11T15:19:06Z</time>
      </trkpt>
      <trkpt lat="44.49035" lon="1.54108">
        <ele>256.33</ele>
        <time>2023-05-11T15:19:13Z</time>
      </trkpt>
      <trkpt lat="44.49031" lon="1.54122">
        <ele>255.85</ele>
        <time>2023-05-11T15:19:21Z</time>
      </trkpt>
      <trkpt lat="44.49025" lon="1.54136">
        <ele>254.89</ele>
        <time>2023-05-11T15:19:29Z</time>
      </trkpt>
      <trkpt lat="44.49021" lon="1.54151">
        <ele>253.44</ele>
        <time>2023-05-11T15:19:37Z</time>
      </trkpt>
      <trkpt lat="44.49018" lon="1.54168">
        <ele>252</ele>
        <time>2023-05-11T15:19:46Z</time>
      </trkpt>
      <trkpt lat="44.49016" lon="1.54182">
        <ele>251.04</ele>
        <time>2023-05-11T15:19:54Z</time>
      </trkpt>
      <trkpt lat="44.49015" lon="1.54199">
        <ele>249.12</ele>
        <time>2023-05-11T15:20:03Z</time>
      </trkpt>
      <trkpt lat="44.49018" lon="1.54213">
        <ele>248.16</ele>
        <time>2023-05-11T15:20:11Z</time>
      </trkpt>
      <trkpt lat="44.49021" lon="1.54229">
        <ele>247.68</ele>
        <time>2023-05-11T15:20:20Z</time>
      </trkpt>
      <trkpt lat="44.49025" lon="1.54244">
        <ele>247.2</ele>
        <time>2023-05-11T15:20:29Z</time>
      </trkpt>
      <trkpt lat="44.49028" lon="1.54258">
        <ele>246.72</ele>
        <time>2023-05-11T15:20:38Z</time>
      </trkpt>
      <trkpt lat="44.49027" lon="1.54274">
        <ele>246.72</ele>
        <time>2023-05-11T15:20:48Z</time>
      </trkpt>
      <trkpt lat="44.49023" lon="1.54292">
        <ele>246.72</ele>
        <time>2023-05-11T15:20:59Z</time>
      </trkpt>
      <trkpt lat="44.49018" lon="1.5431">
        <ele>246.72</ele>
        <time>2023-05-11T15:21:09Z</time>
      </trkpt>
      <trkpt lat="44.49012" lon="1.54326">
        <ele>246.72</ele>
        <time>2023-05-11T15:21:19Z</time>
      </trkpt>
      <trkpt lat="44.49004" lon="1.5434">
        <ele>245.75</ele>
        <time>2023-05-11T15:21:28Z</time>
      </trkpt>
      <trkpt lat="44.48998" lon="1.54352">
        <ele>244.79</ele>
        <time>2023-05-11T15:21:37Z</time>
      </trkpt>
      <trkpt lat="44.48994" lon="1.54365">
        <ele>243.83</ele>
        <time>2023-05-11T15:21:45Z</time>
      </trkpt>
      <trkpt lat="44.48993" lon="1.54379">
        <ele>242.87</ele>
        <time>2023-05-11T15:21:53Z</time>
      </trkpt>
      <trkpt lat="44.48997" lon="1.54391">
        <ele>242.39</ele>
        <time>2023-05-11T15:22:01Z</time>
      </trkpt>
      <trkpt lat="44.49004" lon="1.54402">
        <ele>241.43</ele>
        <time>2023-05-11T15:22:10Z</time>
      </trkpt>
      <trkpt lat="44.49011" lon="1.54413">
        <ele>240.95</ele>
        <time>2023-05-11T15:22:21Z</time>
      </trkpt>
      <trkpt lat="44.49013" lon="1.54428">
        <ele>240.47</ele>
        <time>2023-05-11T15:22:31Z</time>
      </trkpt>
      <trkpt lat="44.49012" lon="1.54446">
        <ele>240.47</ele>
        <time>2023-05-11T15:22:42Z</time>
      </trkpt>
      <trkpt lat="44.49005" lon="1.54462">
        <ele>241.43</ele>
        <time>2023-05-11T15:22:53Z</time>
      </trkpt>
      <trkpt lat="44.48994" lon="1.54475">
        <ele>241.91</ele>
        <time>2023-05-11T15:23:04Z</time>
      </trkpt>
      <trkpt lat="44.48985" lon="1.54486">
        <ele>242.87</ele>
        <time>2023-05-11T15:23:14Z</time>
      </trkpt>
      <trkpt lat="44.48977" lon="1.545">
        <ele>243.83</ele>
        <time>2023-05-11T15:23:25Z</time>
      </trkpt>
      <trkpt lat="44.48972" lon="1.54515">
        <ele>244.31</ele>
        <time>2023-05-11T15:23:35Z</time>
      </trkpt>
      <trkpt lat="44.48966" lon="1.54529">
        <ele>244.79</ele>
        <time>2023-05-11T15:23:45Z</time>
      </trkpt>
      <trkpt lat="44.48961" lon="1.54543">
        <ele>245.27</ele>
        <time>2023-05-11T15:23:55Z</time>
      </trkpt>
      <trkpt lat="44.48955" lon="1.54558">
        <ele>245.27</ele>
        <time>2023-05-11T15:24:05Z</time>
      </trkpt>
      <trkpt lat="44.48952" lon="1.54572">
        <ele>245.27</ele>
        <time>2023-05-11T15:24:14Z</time>
      </trkpt>
      <trkpt lat="44.48948" lon="1.54587">
        <ele>245.75</ele>
        <time>2023-05-11T15:24:24Z</time>
      </trkpt>
      <trkpt lat="44.48945" lon="1.54601">
        <ele>245.75</ele>
        <time>2023-05-11T15:24:33Z</time>
      </trkpt>
      <trkpt lat="44.48943" lon="1.54616">
        <ele>245.75</ele>
        <time>2023-05-11T15:24:41Z</time>
      </trkpt>
      <trkpt lat="44.48943" lon="1.54631">
        <ele>246.23</ele>
        <time>2023-05-11T15:24:49Z</time>
      </trkpt>
      <trkpt lat="44.48942" lon="1.54646">
        <ele>246.23</ele>
        <time>2023-05-11T15:24:57Z</time>
      </trkpt>
      <trkpt lat="44.48941" lon="1.5466">
        <ele>246.23</ele>
        <time>2023-05-11T15:25:04Z</time>
      </trkpt>
      <trkpt lat="44.48939" lon="1.54674">
        <ele>246.23</ele>
        <time>2023-05-11T15:25:13Z</time>
      </trkpt>
      <trkpt lat="44.48937" lon="1.54692">
        <ele>246.23</ele>
        <time>2023-05-11T15:25:22Z</time>
      </trkpt>
      <trkpt lat="44.48935" lon="1.54708">
        <ele>246.23</ele>
        <time>2023-05-11T15:25:31Z</time>
      </trkpt>
      <trkpt lat="44.48932" lon="1.54723">
        <ele>246.23</ele>
        <time>2023-05-11T15:25:40Z</time>
      </trkpt>
      <trkpt lat="44.4893" lon="1.54739">
        <ele>246.23</ele>
        <time>2023-05-11T15:25:50Z</time>
      </trkpt>
      <trkpt lat="44.48924" lon="1.54756">
        <ele>246.23</ele>
        <time>2023-05-11T15:26:01Z</time>
      </trkpt>
      <trkpt lat="44.48919" lon="1.54773">
        <ele>246.23</ele>
        <time>2023-05-11T15:26:11Z</time>
      </trkpt>
      <trkpt lat="44.48915" lon="1.54788">
        <ele>246.23</ele>
        <time>2023-05-11T15:26:21Z</time>
      </trkpt>
      <trkpt lat="44.48911" lon="1.54803">
        <ele>246.72</ele>
        <time>2023-05-11T15:26:31Z</time>
      </trkpt>
      <trkpt lat="44.48906" lon="1.54818">
        <ele>247.2</ele>
        <time>2023-05-11T15:26:40Z</time>
      </trkpt>
      <trkpt lat="44.48901" lon="1.54831">
        <ele>247.2</ele>
        <time>2023-05-11T15:26:49Z</time>
      </trkpt>
      <trkpt lat="44.48895" lon="1.54843">
        <ele>247.68</ele>
        <time>2023-05-11T15:26:58Z</time>
      </trkpt>
      <trkpt lat="44.48892" lon="1.54858">
        <ele>247.68</ele>
        <time>2023-05-11T15:27:07Z</time>
      </trkpt>
      <trkpt lat="44.48889" lon="1.54873">
        <ele>247.68</ele>
        <time>2023-05-11T15:27:18Z</time>
      </trkpt>
      <trkpt lat="44.48883" lon="1.54882">
        <ele>247.68</ele>
        <time>2023-05-11T15:27:35Z</time>
      </trkpt>
      <trkpt lat="44.48875" lon="1.54893">
        <ele>245.75</ele>
        <time>2023-05-11T15:27:44Z</time>
      </trkpt>
      <trkpt lat="44.48867" lon="1.54905">
        <ele>245.27</ele>
        <time>2023-05-11T15:27:55Z</time>
      </trkpt>
      <trkpt lat="44.48859" lon="1.5492">
        <ele>244.31</ele>
        <time>2023-05-11T15:28:11Z</time>
      </trkpt>
      <trkpt lat="44.48851" lon="1.54931">
        <ele>243.35</ele>
        <time>2023-05-11T15:28:23Z</time>
      </trkpt>
      <trkpt lat="44.48842" lon="1.54943">
        <ele>241.91</ele>
        <time>2023-05-11T15:28:36Z</time>
      </trkpt>
      <trkpt lat="44.48834" lon="1.54956">
        <ele>240.95</ele>
        <time>2023-05-11T15:28:47Z</time>
      </trkpt>
      <trkpt lat="44.48824" lon="1.54965">
        <ele>239.99</ele>
        <time>2023-05-11T15:28:56Z</time>
      </trkpt>
      <trkpt lat="44.48814" lon="1.54974">
        <ele>238.06</ele>
        <time>2023-05-11T15:29:06Z</time>
      </trkpt>
      <trkpt lat="44.48805" lon="1.54983">
        <ele>236.62</ele>
        <time>2023-05-11T15:29:15Z</time>
      </trkpt>
      <trkpt lat="44.48795" lon="1.54991">
        <ele>235.18</ele>
        <time>2023-05-11T15:29:26Z</time>
      </trkpt>
      <trkpt lat="44.48785" lon="1.55001">
        <ele>233.26</ele>
        <time>2023-05-11T15:29:36Z</time>
      </trkpt>
      <trkpt lat="44.48776" lon="1.5501">
        <ele>231.81</ele>
        <time>2023-05-11T15:29:46Z</time>
      </trkpt>
      <trkpt lat="44.48765" lon="1.55018">
        <ele>230.37</ele>
        <time>2023-05-11T15:29:56Z</time>
      </trkpt>
      <trkpt lat="44.48755" lon="1.55023">
        <ele>228.93</ele>
        <time>2023-05-11T15:30:05Z</time>
      </trkpt>
      <trkpt lat="44.48744" lon="1.55028">
        <ele>227.49</ele>
        <time>2023-05-11T15:30:15Z</time>
      </trkpt>
      <trkpt lat="44.48734" lon="1.55036">
        <ele>226.05</ele>
        <time>2023-05-11T15:30:25Z</time>
      </trkpt>
      <trkpt lat="44.48722" lon="1.55041">
        <ele>224.12</ele>
        <time>2023-05-11T15:30:35Z</time>
      </trkpt>
      <trkpt lat="44.48712" lon="1.55045">
        <ele>222.2</ele>
        <time>2023-05-11T15:30:45Z</time>
      </trkpt>
      <trkpt lat="44.487" lon="1.55051">
        <ele>219.8</ele>
        <time>2023-05-11T15:30:57Z</time>
      </trkpt>
      <trkpt lat="44.48688" lon="1.55055">
        <ele>217.88</ele>
        <time>2023-05-11T15:31:07Z</time>
      </trkpt>
      <trkpt lat="44.48678" lon="1.5506">
        <ele>216.43</ele>
        <time>2023-05-11T15:31:16Z</time>
      </trkpt>
      <trkpt lat="44.48666" lon="1.5506">
        <ele>214.51</ele>
        <time>2023-05-11T15:31:26Z</time>
      </trkpt>
      <trkpt lat="44.48655" lon="1.55068">
        <ele>212.11</ele>
        <time>2023-05-11T15:31:37Z</time>
      </trkpt>
      <trkpt lat="44.48645" lon="1.55072">
        <ele>208.74</ele>
        <time>2023-05-11T15:31:47Z</time>
      </trkpt>
      <trkpt lat="44.48634" lon="1.55077">
        <ele>205.86</ele>
        <time>2023-05-11T15:32:00Z</time>
      </trkpt>
      <trkpt lat="44.48621" lon="1.55075">
        <ele>203.46</ele>
        <time>2023-05-11T15:32:10Z</time>
      </trkpt>
      <trkpt lat="44.4861" lon="1.55073">
        <ele>201.05</ele>
        <time>2023-05-11T15:32:21Z</time>
      </trkpt>
      <trkpt lat="44.48599" lon="1.55068">
        <ele>199.13</ele>
        <time>2023-05-11T15:32:32Z</time>
      </trkpt>
      <trkpt lat="44.48588" lon="1.55064">
        <ele>197.21</ele>
        <time>2023-05-11T15:32:42Z</time>
      </trkpt>
      <trkpt lat="44.48577" lon="1.55062">
        <ele>195.28</ele>
        <time>2023-05-11T15:32:52Z</time>
      </trkpt>
      <trkpt lat="44.48565" lon="1.55058">
        <ele>193.84</ele>
        <time>2023-05-11T15:33:03Z</time>
      </trkpt>
      <trkpt lat="44.48553" lon="1.55057">
        <ele>191.92</ele>
        <time>2023-05-11T15:33:13Z</time>
      </trkpt>
      <trkpt lat="44.48541" lon="1.55055">
        <ele>190.48</ele>
        <time>2023-05-11T15:33:23Z</time>
      </trkpt>
      <trkpt lat="44.48546" lon="1.5506">
        <ele>188.56</ele>
        <time>2023-05-11T15:33:45Z</time>
      </trkpt>
      <trkpt lat="44.48557" lon="1.55065">
        <ele>188.08</ele>
        <time>2023-05-11T15:33:54Z</time>
      </trkpt>
      <trkpt lat="44.48549" lon="1.55068">
        <ele>186.15</ele>
        <time>2023-05-11T15:34:03Z</time>
      </trkpt>
      <trkpt lat="44.48535" lon="1.55068">
        <ele>184.71</ele>
        <time>2023-05-11T15:34:14Z</time>
      </trkpt>
      <trkpt lat="44.48527" lon="1.55073">
        <ele>182.79</ele>
        <time>2023-05-11T15:34:24Z</time>
      </trkpt>
      <trkpt lat="44.48539" lon="1.55075">
        <ele>180.38</ele>
        <time>2023-05-11T15:34:57Z</time>
      </trkpt>
      <trkpt lat="44.48525" lon="1.55072">
        <ele>181.83</ele>
        <time>2023-05-11T15:35:21Z</time>
      </trkpt>
      <trkpt lat="44.48524" lon="1.55073">
        <ele>182.79</ele>
        <time>2023-05-11T15:38:06Z</time>
      </trkpt>
      <trkpt lat="44.48538" lon="1.55077">
        <ele>180.87</ele>
        <time>2023-05-11T15:38:28Z</time>
      </trkpt>
      <trkpt lat="44.48549" lon="1.55087">
        <ele>178.46</ele>
        <time>2023-05-11T15:38:43Z</time>
      </trkpt>
      <trkpt lat="44.48557" lon="1.551">
        <ele>175.58</ele>
        <time>2023-05-11T15:38:55Z</time>
      </trkpt>
      <trkpt lat="44.48567" lon="1.55112">
        <ele>173.17</ele>
        <time>2023-05-11T15:39:06Z</time>
      </trkpt>
      <trkpt lat="44.48575" lon="1.55124">
        <ele>171.25</ele>
        <time>2023-05-11T15:39:15Z</time>
      </trkpt>
      <trkpt lat="44.48583" lon="1.55138">
        <ele>170.29</ele>
        <time>2023-05-11T15:39:24Z</time>
      </trkpt>
      <trkpt lat="44.48584" lon="1.5515">
        <ele>168.37</ele>
        <time>2023-05-11T15:39:33Z</time>
      </trkpt>
      <trkpt lat="44.48571" lon="1.55144">
        <ele>165.96</ele>
        <time>2023-05-11T15:39:43Z</time>
      </trkpt>
      <trkpt lat="44.48556" lon="1.55142">
        <ele>162.6</ele>
        <time>2023-05-11T15:39:54Z</time>
      </trkpt>
      <trkpt lat="44.48543" lon="1.55141">
        <ele>159.72</ele>
        <time>2023-05-11T15:40:04Z</time>
      </trkpt>
      <trkpt lat="44.48531" lon="1.55141">
        <ele>157.31</ele>
        <time>2023-05-11T15:40:11Z</time>
      </trkpt>
      <trkpt lat="44.48521" lon="1.55142">
        <ele>155.39</ele>
        <time>2023-05-11T15:40:18Z</time>
      </trkpt>
      <trkpt lat="44.4851" lon="1.55144">
        <ele>153.47</ele>
        <time>2023-05-11T15:40:26Z</time>
      </trkpt>
      <trkpt lat="44.485" lon="1.55143">
        <ele>150.58</ele>
        <time>2023-05-11T15:40:35Z</time>
      </trkpt>
      <trkpt lat="44.4849" lon="1.55139">
        <ele>148.18</ele>
        <time>2023-05-11T15:40:45Z</time>
      </trkpt>
      <trkpt lat="44.48479" lon="1.55139">
        <ele>146.74</ele>
        <time>2023-05-11T15:40:55Z</time>
      </trkpt>
      <trkpt lat="44.48484" lon="1.55148">
        <ele>145.3</ele>
        <time>2023-05-11T15:41:06Z</time>
      </trkpt>
      <trkpt lat="44.48494" lon="1.55154">
        <ele>144.34</ele>
        <time>2023-05-11T15:41:15Z</time>
      </trkpt>
      <trkpt lat="44.48502" lon="1.55159">
        <ele>143.85</ele>
        <time>2023-05-11T15:41:24Z</time>
      </trkpt>
      <trkpt lat="44.48512" lon="1.55166">
        <ele>142.89</ele>
        <time>2023-05-11T15:41:35Z</time>
      </trkpt>
      <trkpt lat="44.48522" lon="1.55174">
        <ele>141.93</ele>
        <time>2023-05-11T15:41:46Z</time>
      </trkpt>
      <trkpt lat="44.48531" lon="1.55181">
        <ele>140.97</ele>
        <time>2023-05-11T15:42:09Z</time>
      </trkpt>
      <trkpt lat="44.48538" lon="1.55191">
        <ele>140.49</ele>
        <time>2023-05-11T15:42:20Z</time>
      </trkpt>
      <trkpt lat="44.48538" lon="1.55206">
        <ele>140.49</ele>
        <time>2023-05-11T15:42:29Z</time>
      </trkpt>
      <trkpt lat="44.48543" lon="1.55219">
        <ele>140.49</ele>
        <time>2023-05-11T15:42:39Z</time>
      </trkpt>
      <trkpt lat="44.48548" lon="1.5523">
        <ele>140.49</ele>
        <time>2023-05-11T15:42:48Z</time>
      </trkpt>
      <trkpt lat="44.4855" lon="1.55245">
        <ele>140.01</ele>
        <time>2023-05-11T15:43:17Z</time>
      </trkpt>
      <trkpt lat="44.48555" lon="1.55257">
        <ele>140.01</ele>
        <time>2023-05-11T15:43:25Z</time>
      </trkpt>
      <trkpt lat="44.48559" lon="1.5527">
        <ele>140.01</ele>
        <time>2023-05-11T15:43:32Z</time>
      </trkpt>
      <trkpt lat="44.48563" lon="1.55282">
        <ele>140.01</ele>
        <time>2023-05-11T15:43:40Z</time>
      </trkpt>
      <trkpt lat="44.48566" lon="1.55294">
        <ele>140.01</ele>
        <time>2023-05-11T15:43:48Z</time>
      </trkpt>
      <trkpt lat="44.4857" lon="1.55306">
        <ele>140.01</ele>
        <time>2023-05-11T15:43:55Z</time>
      </trkpt>
      <trkpt lat="44.48564" lon="1.55316">
        <ele>139.53</ele>
        <time>2023-05-11T15:44:02Z</time>
      </trkpt>
      <trkpt lat="44.48554" lon="1.55321">
        <ele>138.57</ele>
        <time>2023-05-11T15:44:10Z</time>
      </trkpt>
      <trkpt lat="44.48545" lon="1.55325">
        <ele>138.09</ele>
        <time>2023-05-11T15:44:19Z</time>
      </trkpt>
      <trkpt lat="44.48531" lon="1.55329">
        <ele>134.72</ele>
        <time>2023-05-11T15:44:38Z</time>
      </trkpt>
      <trkpt lat="44.48534" lon="1.5534">
        <ele>133.76</ele>
        <time>2023-05-11T15:44:49Z</time>
      </trkpt>
      <trkpt lat="44.4854" lon="1.55351">
        <ele>133.28</ele>
        <time>2023-05-11T15:44:59Z</time>
      </trkpt>
      <trkpt lat="44.48545" lon="1.55366">
        <ele>132.8</ele>
        <time>2023-05-11T15:45:10Z</time>
      </trkpt>
      <trkpt lat="44.48543" lon="1.55384">
        <ele>131.84</ele>
        <time>2023-05-11T15:45:20Z</time>
      </trkpt>
      <trkpt lat="44.48537" lon="1.55393">
        <ele>131.84</ele>
        <time>2023-05-11T15:45:28Z</time>
      </trkpt>
      <trkpt lat="44.48536" lon="1.5541">
        <ele>131.84</ele>
        <time>2023-05-11T15:45:39Z</time>
      </trkpt>
      <trkpt lat="44.48539" lon="1.55425">
        <ele>131.36</ele>
        <time>2023-05-11T15:45:48Z</time>
      </trkpt>
      <trkpt lat="44.48545" lon="1.55438">
        <ele>131.36</ele>
        <time>2023-05-11T15:45:58Z</time>
      </trkpt>
      <trkpt lat="44.48547" lon="1.55451">
        <ele>132.32</ele>
        <time>2023-05-11T15:46:09Z</time>
      </trkpt>
      <trkpt lat="44.48552" lon="1.55462">
        <ele>134.72</ele>
        <time>2023-05-11T15:46:23Z</time>
      </trkpt>
      <trkpt lat="44.48553" lon="1.55478">
        <ele>136.16</ele>
        <time>2023-05-11T15:46:38Z</time>
      </trkpt>
      <trkpt lat="44.48553" lon="1.55495">
        <ele>136.16</ele>
        <time>2023-05-11T15:46:50Z</time>
      </trkpt>
      <trkpt lat="44.48556" lon="1.55508">
        <ele>136.16</ele>
        <time>2023-05-11T15:47:09Z</time>
      </trkpt>
      <trkpt lat="44.48561" lon="1.55519">
        <ele>136.16</ele>
        <time>2023-05-11T15:47:35Z</time>
      </trkpt>
    </trkseg>
  </trk>
</gpx>